Data for 04/13/2011

Time Sea-Level Adjusted Pressure Absolute Pressure Temperature Relative Humidity Dew Point Precipitation   
(mb) (inHg) (mb) (inHg) (C) (F) (%) (C) (F) (mm) (in)
00:01 1019 30.09 848 25.04 2.9 37.2 69 -2.1 28.1 3.298 0.13
00:02 1019 30.09 848 25.04 2.9 37.2 70 -2.1 28.2 3.326 0.131
00:03 1019 30.09 848 25.04 2.9 37.3 69 -2.2 28.1 3.337 0.131
00:04 1019 30.09 848 25.04 2.9 37.3 69 -2.2 28.1 3.365 0.132
00:05 1019 30.09 848 25.04 3 37.3 69 -2.2 28.1 3.365 0.132
00:06 1019 30.09 848 25.04 2.9 37.3 69 -2.1 28.2 3.394 0.134
00:07 1019 30.09 848 25.04 2.9 37.3 70 -2 28.4 3.343 0.132
00:08 1019 30.09 848 25.04 2.9 37.2 70 -2.1 28.2 3.309 0.13
00:09 1019 30.09 848 25.04 2.9 37.3 70 -2.1 28.3 3.365 0.132
00:10 1019 30.09 848 25.04 2.9 37.2 70 -2 28.3 3.291 0.13
00:11 1019 30.09 848 25.04 2.9 37.2 71 -2 28.5 3.297 0.13
00:12 1019 30.09 848 25.04 2.9 37.2 71 -2 28.5 3.264 0.129
00:13 1019 30.09 848 25.04 2.8 37 71 -2 28.4 3.201 0.126
00:14 1019 30.09 848 25.04 2.8 37 70 -2.1 28.2 3.241 0.128
00:15 1019 30.09 848 25.04 2.8 37 71 -2 28.4 3.217 0.127
00:16 1019 30.09 848 25.04 2.8 37 71 -2.1 28.3 3.166 0.125
00:17 1019 30.09 848 25.04 2.7 36.9 71 -2 28.4 3.172 0.125
00:18 1019 30.09 848 25.04 2.7 36.8 71 -2 28.3 3.137 0.124
00:19 1019 30.09 848 25.04 2.7 36.9 71 -2 28.4 3.16 0.124
00:20 1019 30.09 848 25.04 2.7 36.9 71 -2 28.5 3.081 0.121
00:21 1019 30.09 848 25.04 2.7 36.8 71 -2.1 28.3 3.052 0.12
00:22 1019 30.09 848 25.04 2.7 36.9 71 -2 28.5 3.148 0.124
00:23 1019 30.09 848 25.04 2.7 36.8 71 -2.1 28.3 3.12 0.123
00:24 1019 30.09 848 25.04 2.8 37 71 -2 28.4 3.199 0.126
00:25 1019 30.09 848 25.04 2.7 36.9 71 -1.9 28.5 3.148 0.124
00:26 1019 30.09 848 25.04 2.7 36.9 72 -1.9 28.5 3.125 0.123
00:27 1019 30.09 848 25.04 2.7 36.9 71 -2 28.4 3.125 0.123
00:28 1019 30.09 848 25.04 2.8 37 71 -2 28.4 3.159 0.124
00:29 1019 30.09 848 25.04 2.7 36.9 71 -2 28.5 3.165 0.125
00:30 1019 30.09 848 25.04 2.7 36.9 71 -1.9 28.5 3.132 0.123
00:31 1019 30.09 848 25.04 2.7 36.9 71 -2 28.4 3.149 0.124
00:32 1019 30.09 848 25.04 2.7 36.9 71 -2 28.3 3.154 0.124
00:33 1019 30.09 848 25.04 2.7 36.8 72 -1.9 28.5 3.125 0.123
00:34 1019 30.09 848 25.04 2.6 36.8 71 -2 28.4 3.074 0.121
00:35 1019 30.09 848 25.04 2.7 36.8 71 -2 28.4 3.091 0.122
00:36 1019 30.09 848 25.04 2.7 36.9 71 -2 28.4 3.153 0.124
00:37 1019 30.09 848 25.04 2.7 36.9 72 -1.9 28.6 3.08 0.121
00:38 1019 30.09 848 25.04 2.6 36.7 72 -1.9 28.7 2.989 0.118
00:39 1019 30.09 848 25.04 2.5 36.5 72 -2 28.5 2.932 0.115
00:40 1019 30.09 848 25.04 2.6 36.6 72 -2 28.4 3.006 0.118
00:41 1019 30.09 848 25.04 2.6 36.7 72 -1.9 28.5 3.022 0.119
00:42 1019 30.09 848 25.04 2.6 36.6 72 -1.9 28.5 2.96 0.117
00:43 1019 30.09 848 25.04 2.6 36.6 73 -1.9 28.6 2.937 0.116
00:44 1019 30.09 848 25.04 2.5 36.6 73 -1.8 28.7 2.937 0.116
00:45 1019 30.09 848 25.04 2.5 36.5 73 -1.9 28.5 2.92 0.115
00:46 1019 30.09 848 25.04 2.5 36.5 72 -2 28.5 2.96 0.117
00:47 1019 30.09 848 25.04 2.5 36.6 73 -1.8 28.7 2.948 0.116
00:48 1019 30.09 848 25.04 2.5 36.4 73 -1.8 28.7 2.886 0.114
00:49 1019 30.09 848 25.04 2.5 36.4 73 -1.9 28.7 2.92 0.115
00:50 1019 30.09 848 25.04 2.5 36.5 73 -1.9 28.6 2.914 0.115
00:51 1019 30.09 848 25.04 2.5 36.5 73 -1.9 28.6 2.954 0.116
00:52 1019 30.09 848 25.04 2.5 36.5 73 -1.9 28.6 2.977 0.117
00:53 1019 30.09 848 25.04 2.5 36.5 74 -1.7 28.9 2.88 0.113
00:54 1019 30.09 848 25.04 2.4 36.4 73 -1.8 28.7 2.875 0.113
00:55 1019 30.09 848 25.04 2.5 36.4 73 -1.9 28.6 2.881 0.113
00:56 1019 30.09 848 25.04 2.5 36.5 73 -1.8 28.8 2.927 0.115
00:57 1019 30.09 848 25.04 2.5 36.5 74 -1.7 28.9 2.916 0.115
00:58 1019 30.09 848 25.04 2.5 36.4 73 -1.9 28.7 2.87 0.113
00:59 1019 30.09 848 25.04 2.4 36.4 74 -1.7 28.9 2.864 0.113
01:00 1019 30.09 848 25.04 2.4 36.3 74 -1.8 28.7 2.847 0.112
01:01 1019 30.09 848 25.04 2.4 36.3 74 -1.8 28.7 2.887 0.114
01:02 1019 30.09 848 25.04 2.4 36.4 74 -1.7 28.9 2.877 0.113
01:03 1019 30.09 848 25.04 2.4 36.4 74 -1.8 28.7 2.848 0.112
01:04 1019 30.09 848 25.04 2.5 36.4 74 -1.8 28.8 2.855 0.112
01:05 1019 30.09 848 25.04 2.4 36.4 74 -1.8 28.8 2.855 0.112
01:06 1019 30.09 848 25.04 2.4 36.3 74 -1.7 28.9 2.81 0.111
01:07 1019 30.09 848 25.04 2.4 36.4 73 -1.9 28.6 2.855 0.112
01:08 1019 30.09 848 25.04 2.5 36.5 74 -1.7 28.9 2.888 0.114
01:09 1019 30.09 848 25.04 2.5 36.5 73 -1.8 28.7 2.911 0.115
01:10 1019 30.09 848 25.04 2.5 36.5 73 -1.8 28.7 2.888 0.114
01:11 1019 30.09 848 25.04 2.5 36.5 73 -1.8 28.7 2.882 0.113
01:12 1019 30.09 848 25.04 2.5 36.5 73 -1.8 28.7 2.888 0.114
01:13 1019 30.09 848 25.04 2.5 36.4 73 -1.9 28.7 2.899 0.114
01:14 1019 30.09 848 25.04 2.4 36.4 74 -1.8 28.8 2.848 0.112
01:15 1019 30.09 848 25.04 2.4 36.4 74 -1.8 28.8 2.848 0.112
01:16 1019 30.09 848 25.04 2.4 36.4 74 -1.8 28.7 2.825 0.111
01:17 1019 30.09 848 25.04 2.4 36.3 74 -1.8 28.8 2.796 0.11
01:18 1019 30.09 848 25.04 2.4 36.3 74 -1.7 28.9 2.825 0.111
01:19 1019 30.09 848 25.04 2.3 36.2 74 -1.8 28.8 2.773 0.109
01:20 1019 30.09 848 25.04 2.4 36.2 74 -1.7 28.9 2.779 0.109
01:21 1019 30.09 848 25.04 2.4 36.3 74 -1.8 28.8 2.79 0.11
01:22 1019 30.09 848 25.04 2.4 36.3 74 -1.7 28.9 2.835 0.112
01:23 1019 30.09 848 25.04 2.4 36.3 74 -1.7 28.9 2.79 0.11
01:24 1019 30.09 848 25.04 2.4 36.2 74 -1.7 28.9 2.796 0.11
01:25 1019 30.09 848 25.04 2.3 36.2 75 -1.7 28.9 2.746 0.108
01:26 1019 30.09 848 25.04 2.4 36.3 75 -1.7 29 2.797 0.11
01:27 1019 30.09 848 25.04 2.4 36.2 75 -1.7 29 2.78 0.109
01:28 1019 30.09 848 25.04 2.3 36.1 75 -1.7 29 2.719 0.107
01:29 1019 30.09 848 25.04 2.3 36.1 75 -1.6 29 2.645 0.104
01:30 1019 30.09 848 25.04 2.3 36.1 75 -1.7 29 2.696 0.106
01:31 1019 30.09 848 25.04 2.3 36.1 75 -1.7 28.9 2.703 0.106
01:32 1019 30.09 848 25.04 2.4 36.2 75 -1.7 28.9 2.799 0.11
01:33 1019 30.09 848 25.04 2.4 36.3 75 -1.6 29 2.77 0.109
01:34 1019 30.09 848 25.04 2.3 36.2 75 -1.7 29 2.702 0.106
01:35 1019 30.09 848 25.04 2.3 36.2 75 -1.7 29 2.724 0.107
01:36 1019 30.09 848 25.04 2.3 36.2 75 -1.6 29.1 2.758 0.109
01:37 1019 30.09 848 25.04 2.3 36.1 75 -1.6 29 2.695 0.106
01:38 1019 30.09 848 25.04 2.3 36.1 75 -1.6 29 2.673 0.105
01:39 1018 30.06 848 25.04 2.3 36.1 75 -1.7 29 2.724 0.107
01:40 1019 30.09 848 25.04 2.3 36.1 75 -1.7 29 2.684 0.106
01:41 1019 30.09 848 25.04 2.3 36.2 75 -1.6 29.1 2.723 0.107
01:42 1019 30.09 848 25.04 2.3 36.2 75 -1.6 29.1 2.734 0.108
01:43 1019 30.09 848 25.04 2.3 36.1 75 -1.6 29.1 2.723 0.107
01:44 1019 30.09 848 25.04 2.2 36 76 -1.6 29.1 2.678 0.105
01:45 1018 30.06 848 25.04 2.2 36 76 -1.6 29.1 2.609 0.103
01:46 1019 30.09 848 25.04 2.2 36 76 -1.6 29 2.632 0.104
01:47 1019 30.09 848 25.04 2.2 36 76 -1.7 29 2.655 0.105
01:48 1018 30.06 848 25.04 2.2 36 76 -1.6 29.1 2.678 0.105
01:49 1019 30.09 848 25.04 2.2 36 76 -1.6 29.1 2.65 0.104
01:50 1019 30.09 848 25.04 2.3 36.1 75 -1.6 29.1 2.707 0.107
01:51 1019 30.09 848 25.04 2.3 36.1 76 -1.6 29.1 2.723 0.107
01:52 1019 30.09 848 25.04 2.3 36.1 76 -1.6 29.2 2.689 0.106
01:53 1019 30.09 848 25.04 2.3 36.1 76 -1.6 29.1 2.706 0.107
01:54 1019 30.09 848 25.04 2.3 36.1 75 -1.6 29.1 2.706 0.107
01:55 1018 30.06 848 25.04 2.3 36.2 76 -1.5 29.2 2.706 0.107
01:56 1019 30.09 848 25.04 2.3 36.1 76 -1.5 29.2 2.7 0.106
01:57 1018 30.06 848 25.04 2.2 36 76 -1.5 29.2 2.666 0.105
01:58 1018 30.06 848 25.04 2.2 36 76 -1.6 29.1 2.66 0.105
01:59 1019 30.09 848 25.04 2.2 36 76 -1.6 29.2 2.677 0.105
02:00 1019 30.09 848 25.04 2.3 36.1 76 -1.5 29.2 2.656 0.105
02:01 1019 30.09 848 25.04 2.2 36 76 -1.5 29.3 2.65 0.104
02:02 1019 30.09 848 25.04 2.2 36 76 -1.5 29.2 2.61 0.103
02:03 1019 30.09 848 25.04 2.2 36 76 -1.5 29.2 2.644 0.104
02:04 1019 30.09 848 25.04 2.2 36 76 -1.5 29.2 2.667 0.105
02:05 1019 30.09 848 25.04 2.2 35.9 76 -1.5 29.2 2.655 0.105
02:06 1019 30.09 848 25.04 2.2 36 76 -1.5 29.3 2.639 0.104
02:07 1019 30.09 848 25.04 2.2 35.9 77 -1.5 29.3 2.6 0.102
02:08 1019 30.09 848 25.04 2.2 36 77 -1.5 29.3 2.605 0.103
02:09 1019 30.09 848 25.04 2.2 36 76 -1.5 29.2 2.663 0.105
02:10 1019 30.09 848 25.04 2.2 36 76 -1.5 29.3 2.646 0.104
02:11 1019 30.09 848 25.04 2.3 36.1 76 -1.5 29.3 2.685 0.106
02:12 1019 30.09 848 25.04 2.2 36 76 -1.5 29.3 2.647 0.104
02:13 1018 30.06 848 25.04 2.2 36 77 -1.4 29.4 2.652 0.104
02:14 1019 30.09 848 25.04 2.2 35.9 77 -1.5 29.4 2.562 0.101
02:15 1019 30.09 848 25.04 2.2 35.9 77 -1.5 29.3 2.63 0.104
02:16 1019 30.09 848 25.04 2.2 36 76 -1.5 29.3 2.658 0.105
02:17 1018 30.06 848 25.04 2.2 36 77 -1.5 29.4 2.636 0.104
02:18 1019 30.09 848 25.04 2.2 36 77 -1.5 29.4 2.629 0.104
02:19 1018 30.06 848 25.04 2.2 35.9 77 -1.4 29.4 2.606 0.103
02:20 1018 30.06 848 25.04 2.1 35.9 77 -1.4 29.4 2.578 0.101
02:21 1019 30.09 848 25.04 2.2 35.9 77 -1.4 29.5 2.584 0.102
02:22 1019 30.09 848 25.04 2.2 35.9 77 -1.4 29.5 2.539 0.1
02:23 1019 30.09 848 25.04 2.1 35.8 78 -1.4 29.4 2.517 0.099
02:24 1019 30.09 848 25.04 2.1 35.8 78 -1.4 29.6 2.5 0.098
02:25 1019 30.09 848 25.04 2.1 35.7 78 -1.4 29.4 2.477 0.098
02:26 1019 30.09 848 25.04 2.1 35.8 78 -1.4 29.5 2.494 0.098
02:27 1019 30.09 848 25.04 2.1 35.8 78 -1.4 29.5 2.495 0.098
02:28 1019 30.09 848 25.04 2.1 35.8 77 -1.5 29.4 2.574 0.101
02:29 1019 30.09 848 25.04 2.1 35.8 78 -1.4 29.4 2.495 0.098
02:30 1018 30.06 848 25.04 2.1 35.8 77 -1.5 29.4 2.512 0.099
02:31 1018 30.06 848 25.04 2.1 35.8 78 -1.4 29.5 2.529 0.1
02:32 1018 30.06 848 25.04 2.1 35.8 78 -1.4 29.5 2.501 0.098
02:33 1019 30.09 848 25.04 2.1 35.8 78 -1.3 29.7 2.512 0.099
02:34 1019 30.09 848 25.04 2.1 35.7 78 -1.4 29.4 2.495 0.098
02:35 1019 30.09 848 25.04 2.1 35.7 78 -1.4 29.5 2.461 0.097
02:36 1019 30.09 848 25.04 2.1 35.7 78 -1.4 29.5 2.461 0.097
02:37 1018 30.06 848 25.04 2 35.6 78 -1.4 29.5 2.467 0.097
02:38 1018 30.06 848 25.04 2 35.6 79 -1.3 29.6 2.416 0.095
02:39 1019 30.09 848 25.04 2 35.5 79 -1.4 29.5 2.371 0.093
02:40 1019 30.09 848 25.04 2 35.5 78 -1.4 29.5 2.36 0.093
02:41 1019 30.09 848 25.04 1.9 35.5 79 -1.4 29.5 2.348 0.092
02:42 1018 30.06 848 25.04 1.9 35.5 79 -1.3 29.6 2.343 0.092
02:43 1018 30.06 848 25.04 1.9 35.4 79 -1.4 29.5 2.309 0.091
02:44 1019 30.09 848 25.04 1.9 35.4 79 -1.4 29.5 2.337 0.092
02:45 1018 30.06 848 25.04 1.9 35.4 79 -1.4 29.5 2.292 0.09
02:46 1019 30.09 848 25.04 1.9 35.4 79 -1.4 29.5 2.32 0.091
02:47 1019 30.09 848 25.04 1.9 35.4 79 -1.4 29.5 2.292 0.09
02:48 1019 30.09 848 25.04 1.9 35.4 79 -1.4 29.5 2.326 0.092
02:49 1019 30.09 848 25.04 1.9 35.4 79 -1.3 29.6 2.292 0.09
02:50 1018 30.06 848 25.04 1.8 35.2 80 -1.4 29.5 2.207 0.087
02:51 1019 30.09 848 25.04 1.8 35.2 79 -1.4 29.5 2.224 0.088
02:52 1019 30.09 848 25.04 1.8 35.3 79 -1.4 29.5 2.269 0.089
02:53 1018 30.06 848 25.04 1.9 35.3 79 -1.4 29.5 2.258 0.089
02:54 1019 30.09 848 25.04 1.8 35.2 80 -1.4 29.6 2.219 0.087
02:55 1019 30.09 848 25.04 1.8 35.2 80 -1.4 29.5 2.185 0.086
02:56 1019 30.09 848 25.04 1.8 35.2 80 -1.3 29.6 2.196 0.086
02:57 1018 30.06 848 25.04 1.8 35.2 80 -1.4 29.5 2.19 0.086
02:58 1018 30.06 848 25.04 1.7 35.1 80 -1.4 29.5 2.173 0.086
02:59 1018 30.06 848 25.04 1.8 35.2 79 -1.4 29.4 2.173 0.086
03:00 1019 30.09 848 25.04 1.8 35.2 79 -1.4 29.5 2.173 0.086
03:01 1018 30.06 848 25.04 1.8 35.2 80 -1.4 29.5 2.19 0.086
03:02 1018 30.06 848 25.04 1.7 35.1 80 -1.4 29.5 2.162 0.085
03:03 1019 30.09 848 25.04 1.7 35 80 -1.4 29.5 2.105 0.083
03:04 1019 30.09 848 25.04 1.7 35.1 80 -1.4 29.5 2.162 0.085
03:05 1019 30.09 848 25.04 1.7 35.1 79 -1.4 29.4 2.173 0.086
03:06 1019 30.09 848 25.04 1.8 35.2 79 -1.4 29.5 2.19 0.086
03:07 1018 30.06 848 25.04 1.8 35.2 80 -1.4 29.6 2.162 0.085
03:08 1019 30.09 848 25.04 1.7 35.1 80 -1.4 29.5 2.145 0.084
03:09 1019 30.09 848 25.04 1.8 35.2 79 -1.5 29.3 2.196 0.086
03:10 1018 30.06 848 25.04 1.8 35.3 79 -1.5 29.3 2.258 0.089
03:11 1018 30.06 848 25.04 1.8 35.3 79 -1.5 29.4 2.202 0.087
03:12 1018 30.06 848 25.04 1.8 35.3 79 -1.5 29.3 2.224 0.088
03:13 1018 30.06 848 25.04 1.8 35.3 79 -1.5 29.3 2.213 0.087
03:14 1019 30.09 848 25.04 1.8 35.3 78 -1.6 29.2 2.253 0.089
03:15 1018 30.06 848 25.04 1.8 35.2 79 -1.5 29.3 2.219 0.087
03:16 1018 30.06 848 25.04 1.8 35.2 79 -1.5 29.2 2.196 0.086
03:17 1018 30.06 848 25.04 1.8 35.2 79 -1.5 29.2 2.202 0.087
03:18 1018 30.06 848 25.04 1.8 35.2 79 -1.5 29.3 2.19 0.086
03:19 1018 30.06 848 25.04 1.8 35.2 79 -1.6 29.2 2.19 0.086
03:20 1018 30.06 848 25.04 1.8 35.2 79 -1.6 29.2 2.173 0.086
03:21 1018 30.06 848 25.04 1.8 35.2 79 -1.6 29.2 2.196 0.086
03:22 1018 30.06 848 25.04 1.8 35.2 78 -1.7 29 2.207 0.087
03:23 1018 30.06 848 25.04 1.9 35.4 77 -1.7 28.9 2.292 0.09
03:24 1018 30.06 848 25.04 1.9 35.5 77 -1.7 29 2.4 0.094
03:25 1019 30.09 848 25.04 2 35.5 77 -1.6 29.1 2.343 0.092
03:26 1018 30.06 848 25.04 1.9 35.3 78 -1.6 29.1 2.253 0.089
03:27 1018 30.06 848 25.04 1.8 35.2 78 -1.7 28.9 2.219 0.087
03:28 1018 30.06 848 25.04 1.8 35.3 77 -1.8 28.7 2.292 0.09
03:29 1018 30.06 848 25.04 1.9 35.5 77 -1.8 28.8 2.309 0.091
03:30 1019 30.09 848 25.04 1.9 35.5 77 -1.7 28.9 2.275 0.09
03:31 1019 30.09 848 25.04 1.9 35.4 77 -1.7 28.9 2.309 0.091
03:32 1019 30.09 848 25.04 1.9 35.4 77 -1.8 28.8 2.304 0.091
03:33 1018 30.06 848 25.04 1.9 35.4 77 -1.8 28.8 2.241 0.088
03:34 1018 30.06 848 25.04 1.9 35.4 77 -1.7 28.9 2.287 0.09
03:35 1018 30.06 848 25.04 1.8 35.3 77 -1.7 28.9 2.224 0.088
03:36 1018 30.06 848 25.04 1.7 35.1 78 -1.8 28.8 2.145 0.084
03:37 1018 30.06 848 25.04 1.8 35.2 77 -1.8 28.8 2.196 0.086
03:38 1018 30.06 848 25.04 1.7 35.1 77 -1.8 28.7 2.156 0.085
03:39 1018 30.06 848 25.04 1.7 35.1 77 -1.8 28.7 2.162 0.085
03:40 1018 30.06 848 25.04 1.7 35.1 78 -1.8 28.8 2.145 0.084
03:41 1018 30.06 848 25.04 1.7 35 77 -1.9 28.6 2.106 0.083
03:42 1018 30.06 848 25.04 1.7 35.1 77 -1.8 28.8 2.123 0.084
03:43 1018 30.06 848 25.04 1.7 35.1 77 -1.8 28.7 2.123 0.084
03:44 1018 30.06 848 25.04 1.7 35.1 77 -1.8 28.8 2.128 0.084
03:45 1018 30.06 848 25.04 1.7 35 77 -1.9 28.6 2.111 0.083
03:46 1018 30.06 848 25.04 1.7 35.1 77 -1.8 28.7 2.123 0.084
03:47 1018 30.06 848 25.04 1.7 35.1 77 -1.9 28.6 2.094 0.082
03:48 1018 30.06 848 25.04 1.7 35 77 -1.9 28.6 2.072 0.082
03:49 1018 30.06 848 25.04 1.7 35 77 -1.9 28.6 2.083 0.082
03:50 1018 30.06 848 25.04 1.6 35 77 -1.9 28.6 2.072 0.082
03:51 1018 30.06 848 25.04 1.6 35 77 -1.9 28.6 2.06 0.081
03:52 1018 30.06 848 25.04 1.6 34.9 77 -1.9 28.6 1.992 0.078
03:53 1018 30.06 848 25.04 1.6 34.9 78 -1.9 28.5 1.941 0.076
03:54 1018 30.06 848 25.04 1.6 34.9 77 -2 28.4 2.021 0.08
03:55 1018 30.06 848 25.04 1.6 34.9 77 -2 28.4 2.004 0.079
03:56 1018 30.06 848 25.04 1.6 34.9 77 -2.1 28.3 2.026 0.08
03:57 1018 30.06 848 25.04 1.6 34.9 77 -2 28.4 1.998 0.079
03:58 1018 30.06 848 25.04 1.6 34.8 77 -2.1 28.2 1.947 0.077
03:59 1018 30.06 848 25.04 1.6 34.9 77 -2 28.4 1.981 0.078
04:00 1018 30.06 848 25.04 1.6 34.8 77 -2.1 28.3 1.924 0.076
04:01 1018 30.06 848 25.04 1.6 34.8 77 -2.1 28.2 1.975 0.078
04:02 1018 30.06 848 25.04 1.6 34.8 76 -2.1 28.2 2.004 0.079
04:03 1018 30.06 848 25.04 1.6 34.9 76 -2.2 28 2.009 0.079
04:04 1018 30.06 848 25.04 1.6 34.9 76 -2.2 28.1 1.992 0.078
04:05 1018 30.06 848 25.04 1.6 34.8 77 -2.1 28.2 1.93 0.076
04:06 1018 30.06 848 25.04 1.5 34.7 76 -2.2 28 1.879 0.074
04:07 1018 30.06 848 25.04 1.5 34.8 76 -2.2 28 1.97 0.078
04:08 1018 30.06 848 25.04 1.6 34.8 76 -2.3 27.9 1.975 0.078
04:09 1018 30.06 848 25.04 1.6 34.8 76 -2.3 27.9 1.975 0.078
04:10 1018 30.06 848 25.04 1.5 34.7 76 -2.3 27.8 1.958 0.077
04:11 1018 30.06 848 25.04 1.5 34.7 75 -2.4 27.7 1.953 0.077
04:12 1018 30.06 848 25.04 1.6 34.9 76 -2.3 27.9 1.93 0.076
04:13 1018 30.06 848 25.04 1.5 34.7 75 -2.4 27.7 1.947 0.077
04:14 1018 30.06 848 25.04 1.5 34.7 75 -2.4 27.7 1.907 0.075
04:15 1018 30.06 848 25.04 1.5 34.7 75 -2.4 27.7 1.947 0.077
04:16 1018 30.06 848 25.04 1.5 34.7 75 -2.5 27.6 1.941 0.076
04:17 1018 30.06 848 25.04 1.6 34.9 74 -2.5 27.4 2.026 0.08
04:18 1018 30.06 848 25.04 1.6 34.9 74 -2.4 27.6 2.021 0.08
04:19 1018 30.06 848 25.04 1.6 34.9 74 -2.5 27.6 2.009 0.079
04:20 1018 30.06 848 25.04 1.6 34.8 75 -2.5 27.5 1.953 0.077
04:21 1018 30.06 848 25.04 1.6 34.9 74 -2.6 27.3 2.021 0.08
04:22 1018 30.06 848 25.04 1.6 34.9 74 -2.5 27.4 2.055 0.081
04:23 1018 30.06 848 25.04 1.6 34.8 74 -2.5 27.5 1.958 0.077
04:24 1018 30.06 848 25.04 1.5 34.8 74 -2.5 27.4 1.953 0.077
04:25 1018 30.06 848 25.04 1.6 34.8 74 -2.6 27.4 1.97 0.078
04:26 1018 30.06 848 25.04 1.6 34.9 74 -2.6 27.3 1.981 0.078
04:27 1018 30.06 848 25.04 1.6 34.9 74 -2.5 27.5 1.987 0.078
04:28 1018 30.06 848 25.04 1.6 34.8 74 -2.6 27.3 1.958 0.077
04:29 1018 30.06 848 25.04 1.6 34.8 73 -2.7 27.2 2.009 0.079
04:30 1018 30.06 848 25.04 1.6 34.9 73 -2.7 27.1 2.055 0.081
04:31 1018 30.06 848 25.04 1.7 35 73 -2.6 27.2 2.111 0.083
04:32 1018 30.06 848 25.04 1.7 35 73 -2.7 27.2 2.089 0.082
04:33 1018 30.06 848 25.04 1.6 34.9 73 -2.6 27.3 2.077 0.082
04:34 1018 30.06 848 25.04 1.6 34.8 74 -2.6 27.3 1.947 0.077
04:35 1018 30.06 848 25.04 1.6 34.8 74 -2.6 27.2 1.981 0.078
04:36 1018 30.06 847 25.01 1.5 34.8 74 -2.7 27.2 1.907 0.075
04:37 1018 30.06 848 25.04 1.5 34.7 74 -2.7 27.1 1.907 0.075
04:38 1018 30.06 848 25.04 1.5 34.8 73 -2.7 27.1 1.93 0.076
04:39 1018 30.06 847 25.01 1.5 34.8 73 -2.7 27.1 1.958 0.077
04:40 1018 30.06 847 25.01 1.5 34.7 74 -2.7 27.1 1.896 0.075
04:41 1018 30.06 847 25.01 1.5 34.8 72 -2.9 26.8 1.964 0.077
04:42 1018 30.06 847 25.01 1.7 35 72 -2.8 27 2.123 0.084
04:43 1018 30.06 847 25.01 1.7 35.1 72 -2.7 27.1 2.094 0.082
04:44 1018 30.06 847 25.01 1.7 35 73 -2.7 27.2 2.026 0.08
04:45 1018 30.06 847 25.01 1.6 34.9 73 -2.7 27.1 2.009 0.079
04:46 1018 30.06 847 25.01 1.6 34.8 73 -2.7 27.1 2.004 0.079
04:47 1018 30.06 847 25.01 1.6 34.8 73 -2.7 27.1 1.941 0.076
04:48 1018 30.06 847 25.01 1.5 34.7 73 -2.8 27 1.919 0.076
04:49 1018 30.06 847 25.01 1.6 34.8 73 -2.8 26.9 1.981 0.078
04:50 1018 30.06 847 25.01 1.6 34.9 73 -2.7 27.1 1.998 0.079
04:51 1018 30.06 847 25.01 1.6 34.8 73 -2.8 27 1.97 0.078
04:52 1018 30.06 847 25.01 1.6 34.8 73 -2.8 27 1.941 0.076
04:53 1018 30.06 847 25.01 1.5 34.7 73 -2.8 27 1.913 0.075
04:54 1018 30.06 847 25.01 1.5 34.8 73 -2.8 27 1.89 0.074
04:55 1018 30.06 847 25.01 1.6 34.8 73 -2.8 27 1.987 0.078
04:56 1018 30.06 847 25.01 1.6 34.8 73 -2.8 26.9 1.987 0.078
04:57 1018 30.06 847 25.01 1.5 34.8 73 -2.8 27 1.953 0.077
04:58 1018 30.06 847 25.01 1.5 34.7 73 -2.9 26.8 1.975 0.078
04:59 1018 30.06 847 25.01 1.6 35 72 -2.9 26.8 2.117 0.083
05:00 1018 30.06 847 25.01 1.7 35.1 72 -2.7 27.1 2.083 0.082
05:01 1018 30.06 847 25.01 1.6 34.9 72 -2.9 26.8 2.038 0.08
05:02 1018 30.06 847 25.01 1.6 35 72 -2.9 26.8 2.021 0.08
05:03 1018 30.06 847 25.01 1.6 34.9 72 -2.9 26.9 2.015 0.079
05:04 1018 30.06 847 25.01 1.6 34.9 73 -2.8 26.9 1.981 0.078
05:05 1018 30.06 847 25.01 1.6 34.8 72 -2.9 26.8 1.97 0.078
05:06 1018 30.06 847 25.01 1.5 34.8 72 -2.9 26.8 1.953 0.077
05:07 1018 30.06 847 25.01 1.5 34.8 72 -2.9 26.8 1.981 0.078
05:08 1018 30.06 847 25.01 1.5 34.8 73 -2.9 26.8 1.924 0.076
05:09 1018 30.06 847 25.01 1.5 34.8 73 -2.9 26.9 1.936 0.076
05:10 1018 30.06 847 25.01 1.5 34.7 72 -2.9 26.7 1.958 0.077
05:11 1018 30.06 847 25.01 1.5 34.8 72 -2.9 26.8 2.009 0.079
05:12 1018 30.06 847 25.01 1.6 34.8 72 -2.9 26.8 1.975 0.078
05:13 1018 30.06 847 25.01 1.7 35 72 -2.9 26.7 2.106 0.083
05:14 1018 30.06 847 25.01 1.7 35 71 -2.9 26.7 2.077 0.082
05:15 1018 30.06 847 25.01 1.6 35 71 -3 26.6 2.083 0.082
05:16 1018 30.06 847 25.01 1.7 35 72 -2.9 26.8 2.072 0.082
05:17 1018 30.06 847 25.01 1.6 34.9 72 -2.9 26.8 2.072 0.082
05:18 1018 30.06 847 25.01 1.7 35 71 -3 26.6 2.089 0.082
05:19 1018 30.06 847 25.01 1.7 35 71 -3 26.5 2.094 0.082
05:20 1018 30.06 847 25.01 1.7 35.1 71 -2.9 26.8 2.106 0.083
05:21 1018 30.06 847 25.01 1.7 35.1 71 -3 26.7 2.128 0.084
05:22 1018 30.06 847 25.01 1.7 35.1 71 -2.9 26.8 2.134 0.084
05:23 1018 30.06 847 25.01 1.7 35.1 71 -3 26.6 2.123 0.084
05:24 1018 30.06 847 25.01 1.7 35 71 -3 26.6 2.094 0.082
05:25 1018 30.06 847 25.01 1.6 34.9 71 -3 26.5 2.043 0.08
05:26 1018 30.06 847 25.01 1.6 34.8 72 -3 26.7 1.93 0.076
05:27 1018 30.06 847 25.01 1.5 34.8 72 -3 26.5 1.953 0.077
05:28 1018 30.06 847 25.01 1.5 34.7 72 -3 26.5 1.93 0.076
05:29 1018 30.06 847 25.01 1.5 34.7 72 -3.1 26.4 1.902 0.075
05:30 1018 30.06 847 25.01 1.5 34.7 72 -3 26.5 1.896 0.075
05:31 1018 30.06 847 25.01 1.5 34.6 72 -3 26.7 1.856 0.073
05:32 1018 30.06 847 25.01 1.4 34.6 72 -3.1 26.4 1.839 0.072
05:33 1018 30.06 847 25.01 1.4 34.6 72 -3.1 26.3 1.885 0.074
05:34 1018 30.06 847 25.01 1.5 34.7 72 -3.1 26.5 1.896 0.075
05:35 1018 30.06 847 25.01 1.5 34.6 72 -3 26.6 1.828 0.072
05:36 1018 30.06 847 25.01 1.4 34.4 72 -3.1 26.4 1.783 0.07
05:37 1018 30.06 847 25.01 1.3 34.4 73 -3 26.5 1.72 0.068
05:38 1018 30.06 847 25.01 1.3 34.4 72 -3.2 26.3 1.749 0.069
05:39 1018 30.06 847 25.01 1.4 34.5 72 -3.1 26.5 1.805 0.071
05:40 1018 30.06 847 25.01 1.4 34.6 71 -3.2 26.3 1.856 0.073
05:41 1018 30.06 847 25.01 1.4 34.6 72 -3.1 26.4 1.834 0.072
05:42 1018 30.06 847 25.01 1.4 34.5 73 -3 26.6 1.777 0.07
05:43 1018 30.06 847 25.01 1.3 34.3 73 -3.1 26.5 1.703 0.067
05:44 1018 30.06 847 25.01 1.3 34.3 72 -3.1 26.3 1.715 0.068
05:45 1018 30.06 847 25.01 1.3 34.4 72 -3.1 26.3 1.749 0.069
05:46 1018 30.06 847 25.01 1.3 34.4 72 -3.2 26.3 1.771 0.07
05:47 1018 30.06 847 25.01 1.4 34.5 73 -3 26.6 1.76 0.069
05:48 1018 30.06 847 25.01 1.3 34.4 72 -3.2 26.2 1.754 0.069
05:49 1018 30.06 847 25.01 1.3 34.4 72 -3.2 26.2 1.743 0.069
05:50 1018 30.06 847 25.01 1.3 34.4 72 -3.2 26.2 1.777 0.07
05:51 1018 30.06 847 25.01 1.4 34.4 72 -3.2 26.2 1.766 0.07
05:52 1018 30.06 847 25.01 1.4 34.5 72 -3.2 26.3 1.766 0.07
05:53 1018 30.06 847 25.01 1.3 34.4 72 -3.1 26.4 1.737 0.068
05:54 1018 30.06 847 25.01 1.3 34.4 72 -3.2 26.3 1.754 0.069
05:55 1018 30.06 847 25.01 1.4 34.4 72 -3.1 26.5 1.76 0.069
05:56 1018 30.06 847 25.01 1.3 34.3 72 -3.1 26.3 1.737 0.068
05:57 1018 30.06 847 25.01 1.3 34.3 72 -3.1 26.4 1.681 0.066
05:58 1018 30.06 847 25.01 1.3 34.3 72 -3.2 26.2 1.709 0.067
05:59 1018 30.06 847 25.01 1.3 34.4 72 -3.1 26.4 1.692 0.067
06:00 1018 30.06 847 25.01 1.3 34.3 72 -3.2 26.3 1.766 0.07
06:01 1018 30.06 847 25.01 1.4 34.5 72 -3.2 26.3 1.805 0.071
06:02 1018 30.06 847 25.01 1.3 34.4 72 -3.2 26.3 1.743 0.069
06:03 1018 30.06 847 25.01 1.3 34.4 72 -3.2 26.3 1.709 0.067
06:04 1018 30.06 847 25.01 1.3 34.3 72 -3.2 26.2 1.686 0.066
06:05 1018 30.06 847 25.01 1.3 34.3 72 -3.3 26.1 1.675 0.066
06:06 1018 30.06 847 25.01 1.3 34.4 72 -3.2 26.2 1.698 0.067
06:07 1018 30.06 847 25.01 1.3 34.4 72 -3.2 26.2 1.72 0.068
06:08 1018 30.06 847 25.01 1.4 34.4 71 -3.3 26.1 1.788 0.07
06:09 1018 30.06 847 25.01 1.4 34.5 72 -3.2 26.2 1.8 0.071
06:10 1018 30.06 847 25.01 1.3 34.4 72 -3.2 26.2 1.749 0.069
06:11 1018 30.06 847 25.01 1.3 34.4 72 -3.3 26.1 1.703 0.067
06:12 1018 30.06 847 25.01 1.3 34.3 72 -3.3 26.1 1.692 0.067
06:13 1018 30.06 847 25.01 1.3 34.3 72 -3.3 26 1.686 0.066
06:14 1018 30.06 847 25.01 1.3 34.3 72 -3.3 26.1 1.681 0.066
06:15 1018 30.06 847 25.01 1.3 34.3 72 -3.3 26.1 1.686 0.066
06:16 1018 30.06 847 25.01 1.3 34.3 72 -3.2 26.2 1.703 0.067
06:17 1018 30.06 847 25.01 1.3 34.3 72 -3.3 26 1.647 0.065
06:18 1018 30.06 847 25.01 1.3 34.3 71 -3.4 25.9 1.658 0.065
06:19 1018 30.06 847 25.01 1.2 34.2 72 -3.3 26.1 1.641 0.065
06:20 1018 30.06 847 25.01 1.2 34.1 72 -3.3 26.1 1.635 0.064
06:21 1018 30.06 847 25.01 1.2 34.2 72 -3.4 25.9 1.624 0.064
06:22 1018 30.06 847 25.01 1.2 34.2 72 -3.3 26 1.63 0.064
06:23 1018 30.06 847 25.01 1.2 34.2 72 -3.3 26 1.647 0.065
06:24 1018 30.06 847 25.01 1.3 34.3 71 -3.4 26 1.681 0.066
06:25 1018 30.06 847 25.01 1.3 34.3 71 -3.4 25.8 1.743 0.069
06:26 1018 30.06 847 25.01 1.3 34.3 71 -3.4 25.8 1.737 0.068
06:27 1018 30.06 847 25.01 1.4 34.4 71 -3.3 26 1.737 0.068
06:28 1018 30.06 847 25.01 1.3 34.4 71 -3.4 25.9 1.737 0.068
06:29 1018 30.06 847 25.01 1.3 34.3 71 -3.3 26 1.692 0.067
06:30 1018 30.06 847 25.01 1.3 34.3 72 -3.3 26.1 1.652 0.065
06:31 1018 30.06 847 25.01 1.3 34.3 72 -3.3 26 1.669 0.066
06:32 1018 30.06 847 25.01 1.3 34.3 72 -3.3 26 1.669 0.066
06:33 1018 30.06 847 25.01 1.3 34.3 71 -3.3 26 1.681 0.066
06:34 1018 30.06 847 25.01 1.2 34.2 72 -3.2 26.2 1.602 0.063
06:35 1018 30.06 847 25.01 1.2 34.1 71 -3.4 25.8 1.59 0.063
06:36 1018 30.06 847 25.01 1.2 34.2 71 -3.4 25.8 1.613 0.064
06:37 1018 30.06 847 25.01 1.2 34.2 72 -3.3 26 1.686 0.066
06:38 1018 30.06 847 25.01 1.2 34.2 72 -3.3 26 1.686 0.066
06:39 1018 30.06 847 25.01 1.2 34.2 72 -3.3 26 1.669 0.066
06:40 1018 30.06 847 25.01 1.2 34.1 72 -3.3 26 1.607 0.063
06:41 1018 30.06 847 25.01 1.2 34.2 72 -3.4 25.9 1.618 0.064
06:42 1018 30.06 847 25.01 1.2 34.1 72 -3.4 26 1.602 0.063
06:43 1018 30.06 847 25.01 1.2 34.1 72 -3.3 26.1 1.602 0.063
06:44 1018 30.06 847 25.01 1.2 34.1 72 -3.4 25.9 1.607 0.063
06:45 1018 30.06 847 25.01 1.2 34.2 72 -3.3 26 1.652 0.065
06:46 1018 30.06 847 25.01 1.2 34.2 72 -3.3 26 1.647 0.065
06:47 1018 30.06 847 25.01 1.2 34.2 71 -3.4 25.9 1.692 0.067
06:48 1018 30.06 847 25.01 1.3 34.3 71 -3.4 25.9 1.669 0.066
06:49 1018 30.06 847 25.01 1.2 34.2 72 -3.4 25.9 1.658 0.065
06:50 1018 30.06 847 25.01 1.2 34.1 72 -3.4 25.9 1.602 0.063
06:51 1018 30.06 847 25.01 1.2 34.2 72 -3.4 25.9 1.618 0.064
06:52 1018 30.06 847 25.01 1.2 34.2 72 -3.3 26.1 1.63 0.064
06:53 1018 30.06 847 25.01 1.2 34.1 72 -3.3 26 1.596 0.063
06:54 1018 30.06 847 25.01 1.1 34 72 -3.3 26 1.556 0.061
06:55 1018 30.06 847 25.01 1.2 34.2 72 -3.3 26 1.613 0.064
06:56 1018 30.06 847 25.01 1.2 34.2 71 -3.4 25.9 1.647 0.065
06:57 1018 30.06 847 25.01 1.3 34.3 72 -3.3 26 1.692 0.067
06:58 1018 30.06 847 25.01 1.2 34.2 72 -3.3 26.1 1.658 0.065
06:59 1018 30.06 847 25.01 1.2 34.2 72 -3.3 26 1.681 0.066
07:00 1018 30.06 847 25.01 1.2 34.2 72 -3.3 26.1 1.652 0.065
07:01 1018 30.06 847 25.01 1.2 34.1 73 -3.2 26.3 1.573 0.062
07:02 1018 30.06 847 25.01 1.2 34.2 73 -3.2 26.3 1.607 0.063
07:03 1018 30.06 847 25.01 1.2 34.2 73 -3.1 26.5 1.647 0.065
07:04 1018 30.06 847 25.01 1.3 34.3 72 -3.3 26.1 1.709 0.067
07:05 1018 30.06 847 25.01 1.3 34.4 73 -3.1 26.5 1.743 0.069
07:06 1018 30.06 847 25.01 1.3 34.4 72 -3.1 26.4 1.754 0.069
07:07 1018 30.06 847 25.01 1.4 34.5 72 -3.1 26.4 1.817 0.072
07:08 1018 30.06 847 25.01 1.4 34.5 72 -3.1 26.5 1.777 0.07
07:09 1018 30.06 847 25.01 1.4 34.5 73 -3 26.6 1.788 0.07
07:10 1018 30.06 847 25.01 1.4 34.5 72 -3 26.6 1.817 0.072
07:11 1018 30.06 847 25.01 1.3 34.4 73 -3.1 26.5 1.8 0.071
07:12 1018 30.06 847 25.01 1.3 34.4 72 -3.1 26.4 1.777 0.07
07:13 1018 30.06 847 25.01 1.4 34.5 73 -2.9 26.7 1.805 0.071
07:14 1018 30.06 847 25.01 1.4 34.6 72 -3.1 26.5 1.856 0.073
07:15 1018 30.06 847 25.01 1.5 34.6 72 -3 26.6 1.902 0.075
07:16 1018 30.06 847 25.01 1.4 34.5 73 -3 26.6 1.811 0.071
07:17 1018 30.06 847 25.01 1.4 34.5 73 -2.9 26.7 1.805 0.071
07:18 1018 30.06 847 25.01 1.4 34.5 73 -3 26.6 1.828 0.072
07:19 1018 30.06 847 25.01 1.4 34.5 73 -3 26.6 1.834 0.072
07:20 1018 30.06 847 25.01 1.5 34.7 72 -2.9 26.7 1.924 0.076
07:21 1018 30.06 847 25.01 1.5 34.7 73 -2.9 26.8 1.947 0.077
07:22 1018 30.06 847 25.01 1.6 34.8 72 -3 26.6 1.987 0.078
07:23 1018 30.06 847 25.01 1.6 34.8 72 -3 26.7 2.004 0.079
07:24 1018 30.06 847 25.01 1.6 34.9 73 -2.8 27 2.004 0.079
07:25 1018 30.06 847 25.01 1.6 34.9 72 -2.9 26.7 2.026 0.08
07:26 1018 30.06 847 25.01 1.6 34.9 72 -2.9 26.8 2.032 0.08
07:27 1018 30.06 847 25.01 1.6 34.9 72 -2.9 26.9 2.004 0.079
07:28 1018 30.06 847 25.01 1.6 34.8 72 -2.9 26.8 2.032 0.08
07:29 1018 30.06 847 25.01 1.6 34.8 72 -2.9 26.8 2.026 0.08
07:30 1018 30.06 847 25.01 1.6 34.9 73 -2.8 27 2.021 0.08
07:31 1018 30.06 847 25.01 1.6 34.8 73 -2.7 27.1 1.981 0.078
07:32 1018 30.06 847 25.01 1.6 34.9 73 -2.7 27.1 1.981 0.078
07:33 1018 30.06 847 25.01 1.6 34.8 73 -2.8 26.9 1.987 0.078
07:34 1018 30.06 847 25.01 1.6 34.8 74 -2.7 27.2 1.97 0.078
07:35 1018 30.06 847 25.01 1.5 34.7 74 -2.6 27.3 1.924 0.076
07:36 1018 30.06 847 25.01 1.5 34.7 73 -2.8 27 1.913 0.075
07:37 1018 30.06 847 25.01 1.5 34.7 74 -2.7 27.1 1.89 0.074
07:38 1018 30.06 847 25.01 1.5 34.7 74 -2.7 27.1 1.924 0.076
07:39 1018 30.06 847 25.01 1.5 34.7 74 -2.6 27.3 1.919 0.076
07:40 1018 30.06 847 25.01 1.5 34.8 74 -2.5 27.4 1.97 0.078
07:41 1018 30.06 847 25.01 1.6 34.8 74 -2.5 27.5 1.981 0.078
07:42 1018 30.06 847 25.01 1.6 34.9 74 -2.5 27.5 1.992 0.078
07:43 1018 30.06 847 25.01 1.6 34.9 74 -2.6 27.3 2.038 0.08
07:44 1018 30.06 847 25.01 1.6 34.9 74 -2.5 27.4 2.021 0.08
07:45 1018 30.06 847 25.01 1.6 34.9 74 -2.5 27.5 2.077 0.082
07:46 1018 30.06 847 25.01 1.7 35 73 -2.6 27.3 2.094 0.082
07:47 1018 30.06 847 25.01 1.7 35 74 -2.5 27.6 2.1 0.083
07:48 1018 30.06 847 25.01 1.7 35 74 -2.5 27.4 2.072 0.082
07:49 1018 30.06 847 25.01 1.6 35 74 -2.5 27.5 2.072 0.082
07:50 1018 30.06 847 25.01 1.7 35 73 -2.6 27.3 2.066 0.081
07:51 1018 30.06 847 25.01 1.7 35.1 74 -2.5 27.5 2.128 0.084
07:52 1018 30.06 847 25.01 1.7 35.1 73 -2.6 27.4 2.106 0.083
07:53 1018 30.06 847 25.01 1.7 35 74 -2.5 27.5 2.094 0.082
07:54 1018 30.06 847 25.01 1.6 35 74 -2.5 27.6 2.038 0.08
07:55 1018 30.06 847 25.01 1.6 34.9 74 -2.5 27.6 1.992 0.078
07:56 1018 30.06 847 25.01 1.6 34.9 75 -2.5 27.6 2.004 0.079
07:57 1018 30.06 847 25.01 1.6 34.8 75 -2.4 27.6 2.032 0.08
07:58 1018 30.06 847 25.01 1.6 34.8 75 -2.5 27.6 1.975 0.078
07:59 1018 30.06 847 25.01 1.5 34.8 75 -2.5 27.5 1.93 0.076
08:00 1018 30.06 847 25.01 1.5 34.7 75 -2.5 27.6 1.89 0.074
08:01 1018 30.06 847 25.01 1.5 34.7 75 -2.5 27.5 1.941 0.076
08:02 1018 30.06 847 25.01 1.5 34.7 75 -2.4 27.7 1.913 0.075
08:03 1018 30.06 847 25.01 1.5 34.7 75 -2.5 27.5 1.93 0.076
08:04 1018 30.06 847 25.01 1.5 34.8 74 -2.5 27.4 1.964 0.077
08:05 1018 30.06 847 25.01 1.6 34.9 75 -2.4 27.7 2.009 0.079
08:06 1018 30.06 847 25.01 1.6 34.9 74 -2.5 27.5 2.004 0.079
08:07 1018 30.06 847 25.01 1.6 34.9 74 -2.5 27.5 2.009 0.079
08:08 1018 30.06 847 25.01 1.6 34.9 74 -2.4 27.6 2.049 0.081
08:09 1018 30.06 847 25.01 1.6 34.9 74 -2.5 27.6 1.958 0.077
08:10 1018 30.06 847 25.01 1.6 34.8 75 -2.4 27.7 1.964 0.077
08:11 1018 30.06 847 25.01 1.6 34.8 75 -2.4 27.7 1.981 0.078
08:12 1018 30.06 847 25.01 1.6 34.9 74 -2.5 27.5 2.026 0.08
08:13 1018 30.06 847 25.01 1.6 35 74 -2.5 27.5 2.083 0.082
08:14 1018 30.06 847 25.01 1.7 35 74 -2.4 27.6 2.077 0.082
08:15 1018 30.06 847 25.01 1.7 35 74 -2.4 27.7 2.072 0.082
08:16 1018 30.06 847 25.01 1.7 35 74 -2.5 27.6 2.111 0.083
08:17 1018 30.06 847 25.01 1.7 35 74 -2.6 27.4 2.072 0.082
08:18 1018 30.06 847 25.01 1.7 35 75 -2.4 27.7 2.026 0.08
08:19 1018 30.06 847 25.01 1.6 35 74 -2.4 27.6 2.036 0.08
08:20 1018 30.06 847 25.01 1.7 35 74 -2.4 27.6 2.081 0.082
08:21 1018 30.06 847 25.01 1.7 35.1 75 -2.3 27.9 2.161 0.085
08:22 1018 30.06 847 25.01 1.8 35.2 75 -2.2 28 2.189 0.086
08:23 1018 30.06 847 25.01 1.8 35.3 73 -2.4 27.6 2.24 0.088
08:24 1018 30.06 847 25.01 1.9 35.4 74 -2.2 28.1 2.297 0.09
08:25 1018 30.06 847 25.01 1.9 35.5 74 -2.3 27.9 2.382 0.094
08:26 1018 30.06 847 25.01 2 35.7 73 -2.3 27.8 2.444 0.096
08:27 1018 30.06 847 25.01 2.1 35.8 73 -2.2 28.1 2.495 0.098
08:28 1018 30.06 847 25.01 2.1 35.8 72 -2.4 27.8 2.467 0.097
08:29 1018 30.06 847 25.01 2.1 35.7 74 -2.1 28.2 2.439 0.096
08:30 1018 30.06 847 25.01 2 35.7 73 -2.3 27.9 2.445 0.096
08:31 1018 30.06 847 25.01 2.1 35.7 73 -2.3 27.9 2.49 0.098
08:32 1018 30.06 847 25.01 2.1 35.7 73 -2.2 28 2.496 0.098
08:33 1018 30.06 847 25.01 2.1 35.8 73 -2.3 27.9 2.524 0.099
08:34 1017 30.03 847 25.01 2.2 36 72 -2.3 27.9 2.637 0.104
08:35 1017 30.03 847 25.01 2.3 36.2 71 -2.3 27.8 2.745 0.108
08:36 1018 30.06 847 25.01 2.4 36.3 73 -2 28.4 2.8 0.11
08:37 1018 30.06 847 25.01 2.4 36.4 72 -2.2 28.1 2.817 0.111
08:38 1018 30.06 847 25.01 2.4 36.4 71 -2.2 28 2.789 0.11
08:39 1017 30.03 847 25.01 2.4 36.3 72 -2.2 28.1 2.805 0.11
08:40 1017 30.03 847 25.01 2.4 36.3 73 -2 28.4 2.799 0.11
08:41 1017 30.03 847 25.01 2.5 36.5 71 -2.2 28 2.856 0.112
08:42 1017 30.03 847 25.01 2.5 36.5 71 -2.2 28 2.895 0.114
08:43 1017 30.03 847 25.01 2.5 36.5 72 -2.1 28.1 2.866 0.113
08:44 1017 30.03 847 25.01 2.5 36.5 71 -2.2 28 2.838 0.112
08:45 1017 30.03 847 25.01 2.5 36.4 71 -2.3 27.8 2.843 0.112
08:46 1017 30.03 847 25.01 2.5 36.5 71 -2.3 27.9 2.922 0.115
08:47 1017 30.03 847 25.01 2.6 36.6 69 -2.6 27.4 2.99 0.118
08:48 1018 30.06 847 25.01 2.6 36.6 72 -2 28.4 2.95 0.116
08:49 1017 30.03 847 25.01 2.6 36.7 72 -2 28.4 2.984 0.117
08:50 1017 30.03 847 25.01 2.7 36.8 71 -2.1 28.2 3.029 0.119
08:51 1017 30.03 847 25.01 2.6 36.7 70 -2.3 27.9 3.012 0.119
08:52 1017 30.03 847 25.01 2.7 36.8 70 -2.3 27.9 3.051 0.12
08:53 1017 30.03 847 25.01 2.7 36.8 70 -2.2 28.1 3.096 0.122
08:54 1017 30.03 847 25.01 2.7 36.8 71 -2 28.4 3.038 0.12
08:55 1017 30.03 847 25.01 2.7 36.8 70 -2.2 28 3.067 0.121
08:56 1017 30.03 847 25.01 2.8 37 70 -2.1 28.2 3.14 0.124
08:57 1017 30.03 847 25.01 2.9 37.2 69 -2.3 27.9 3.259 0.128
08:58 1017 30.03 847 25.01 2.9 37.2 70 -2.2 28.1 3.208 0.126
08:59 1017 30.03 847 25.01 2.8 37.1 69 -2.3 27.9 3.196 0.126
09:00 1017 30.03 847 25.01 2.9 37.2 69 -2.2 28 3.292 0.13
09:01 1017 30.03 847 25.01 3 37.3 69 -2.3 27.9 3.371 0.133
09:02 1017 30.03 846 24.98 3.1 37.5 68 -2.2 28.1 3.433 0.135
09:03 1017 30.03 847 25.01 3 37.4 69 -2 28.3 3.387 0.133
09:04 1017 30.03 847 25.01 3 37.4 69 -2.1 28.3 3.375 0.133
09:05 1017 30.03 847 25.01 3 37.3 68 -2.3 27.9 3.335 0.131
09:06 1017 30.03 847 25.01 3 37.4 69 -2.2 28.1 3.403 0.134
09:07 1017 30.03 847 25.01 3.1 37.5 69 -2.2 28.1 3.465 0.136
09:08 1017 30.03 847 25.01 3 37.4 69 -2.1 28.1 3.436 0.135
09:09 1017 30.03 846 24.98 3 37.5 68 -2.2 28 3.436 0.135
09:10 1017 30.03 846 24.98 3.1 37.6 68 -2.2 28 3.476 0.137
09:11 1017 30.03 846 24.98 3.1 37.6 70 -1.9 28.6 3.549 0.14
09:12 1017 30.03 846 24.98 3.3 37.9 71 -1.5 29.3 3.667 0.144
09:13 1017 30.03 847 25.01 3.3 38 67 -2.2 28.1 3.707 0.146
09:14 1017 30.03 846 24.98 3.3 37.9 68 -2 28.4 3.645 0.144
09:15 1017 30.03 846 24.98 3.3 37.9 67 -2.3 27.9 3.656 0.144
09:16 1017 30.03 846 24.98 3.3 37.9 68 -2.1 28.3 3.605 0.142
09:17 1017 30.03 846 24.98 3.3 37.9 68 -2.1 28.2 3.627 0.143
09:18 1017 30.03 846 24.98 3.3 38 67 -2.2 28.1 3.735 0.147
09:19 1017 30.03 846 24.98 3.5 38.3 67 -2 28.3 3.916 0.154
09:20 1017 30.03 846 24.98 3.6 38.5 66 -2.1 28.3 4.017 0.158
09:21 1017 30.03 846 24.98 3.6 38.5 66 -2.2 28.1 3.978 0.157
09:22 1017 30.03 846 24.98 3.7 38.6 67 -1.8 28.7 4.029 0.159
09:23 1017 30.03 846 24.98 3.8 38.8 68 -1.6 29.2 4.215 0.166
09:24 1017 30.03 846 24.98 3.9 39 65 -2.1 28.3 4.255 0.168
09:25 1017 30.03 846 24.98 3.8 38.8 67 -1.8 28.7 4.159 0.164
09:26 1017 30.03 846 24.98 3.8 38.9 69 -1.4 29.4 4.141 0.163
09:27 1017 30.03 846 24.98 3.9 39 68 -1.5 29.3 4.289 0.169
09:28 1017 30.03 846 24.98 3.9 39.1 65 -2 28.3 4.277 0.168
09:29 1017 30.03 846 24.98 4 39.1 65 -1.9 28.5 4.356 0.171
09:30 1017 30.03 846 24.98 4 39.1 65 -2 28.3 4.317 0.17
09:31 1017 30.03 846 24.98 4 39.2 66 -1.8 28.7 4.345 0.171
09:32 1017 30.03 846 24.98 4 39.2 66 -1.8 28.8 4.322 0.17
09:33 1017 30.03 846 24.98 4 39.2 64 -2.2 28.1 4.373 0.172
09:34 1017 30.03 846 24.98 4 39.1 65 -1.9 28.5 4.379 0.172
09:35 1017 30.03 846 24.98 4.1 39.3 66 -1.8 28.8 4.407 0.174
09:36 1017 30.03 846 24.98 4.1 39.3 62 -2.5 27.5 4.441 0.175
09:37 1017 30.03 846 24.98 4 39.2 65 -1.9 28.6 4.401 0.173
09:38 1017 30.03 846 24.98 4 39.2 64 -2.1 28.2 4.367 0.172
09:39 1017 30.03 846 24.98 4 39.2 68 -1.4 29.5 4.373 0.172
09:40 1017 30.03 846 24.98 4.2 39.5 63 -2.2 28.1 4.554 0.179
09:41 1017 30.03 846 24.98 4.2 39.6 65 -1.7 28.9 4.56 0.18
09:42 1017 30.03 846 24.98 4.3 39.7 64 -2 28.4 4.645 0.183
09:43 1017 30.03 846 24.98 4.3 39.7 64 -1.9 28.6 4.61 0.181
09:44 1017 30.03 846 24.98 4.2 39.6 65 -1.7 28.9 4.581 0.18
09:45 1017 30.03 846 24.98 4.2 39.6 64 -1.9 28.5 4.553 0.179
09:46 1017 30.03 846 24.98 4.2 39.5 66 -1.7 29 4.507 0.177
09:47 1017 30.03 846 24.98 4.1 39.5 64 -2 28.3 4.512 0.178
09:48 1017 30.03 846 24.98 4.1 39.4 66 -1.6 29.2 4.483 0.176
09:49 1017 30.03 846 24.98 4.2 39.5 64 -2 28.3 4.597 0.181
09:50 1017 30.03 846 24.98 4.3 39.7 66 -1.5 29.3 4.637 0.183
09:51 1017 30.03 846 24.98 4.2 39.6 65 -1.7 28.9 4.614 0.182
09:52 1017 30.03 846 24.98 4.3 39.7 64 -2 28.4 4.653 0.183
09:53 1017 30.03 846 24.98 4.3 39.7 65 -1.6 29.1 4.715 0.186
09:54 1017 30.03 846 24.98 4.4 39.8 63 -2 28.4 4.743 0.187
09:55 1017 30.03 846 24.98 4.4 39.9 66 -1.4 29.5 4.771 0.188
09:56 1017 30.03 846 24.98 4.5 40 62 -2.2 28.1 4.923 0.194
09:57 1017 30.03 846 24.98 4.5 40 65 -1.5 29.2 4.799 0.189
09:58 1017 30.03 846 24.98 4.4 40 64 -1.8 28.7 4.849 0.191
09:59 1017 30.03 846 24.98 4.5 40.2 63 -1.8 28.7 4.911 0.193
10:00 1017 30.03 846 24.98 4.6 40.3 62 -2 28.4 5.013 0.197
10:01 1017 30.03 846 24.98 4.7 40.5 63 -1.7 28.9 5.153 0.203
10:02 1017 30.03 846 24.98 4.8 40.6 62 -1.9 28.6 5.113 0.201
10:03 1017 30.03 846 24.98 4.7 40.5 63 -1.7 28.9 5.085 0.2
10:04 1017 30.03 846 24.98 4.8 40.7 61 -2 28.3 5.248 0.207
10:05 1017 30.03 846 24.98 4.9 40.9 62 -1.7 29 5.343 0.21
10:06 1017 30.03 846 24.98 5 41 61 -1.9 28.6 5.315 0.209
10:07 1017 30.03 846 24.98 4.9 40.8 60 -2.1 28.2 5.201 0.205
10:08 1017 30.03 846 24.98 4.8 40.6 63 -1.7 29 5.172 0.204
10:09 1017 30.03 846 24.98 4.8 40.7 62 -1.9 28.5 5.223 0.206
10:10 1017 30.03 846 24.98 4.9 40.9 62 -1.7 29 5.285 0.208
10:11 1017 30.03 846 24.98 5 41.1 61 -1.8 28.7 5.449 0.215
10:12 1017 30.03 846 24.98 5.1 41.2 60 -2 28.5 5.471 0.215
10:13 1017 30.03 846 24.98 5.1 41.3 63 -1.3 29.6 5.493 0.216
10:14 1016 30 846 24.98 5.3 41.5 61 -1.7 28.9 5.657 0.223
10:15 1017 30.03 846 24.98 5.2 41.3 61 -1.7 29 5.527 0.218
10:16 1016 30 846 24.98 5.1 41.2 60 -1.9 28.6 5.515 0.217
10:17 1016 30 846 24.98 5.2 41.4 59 -2.1 28.3 5.589 0.22
10:18 1016 30 846 24.98 5.2 41.4 62 -1.5 29.3 5.6 0.22
10:19 1016 30 846 24.98 5.3 41.5 62 -1.4 29.4 5.639 0.222
10:20 1016 30 846 24.98 5.3 41.6 60 -1.7 28.9 5.701 0.224
10:21 1016 30 846 24.98 5.2 41.4 61 -1.6 29.1 5.565 0.219
10:22 1016 30 846 24.98 5.2 41.4 62 -1.4 29.5 5.565 0.219
10:23 1016 30 846 24.98 5.2 41.3 61 -1.7 28.9 5.486 0.216
10:24 1016 30 846 24.98 5.1 41.3 62 -1.5 29.2 5.44 0.214
10:25 1016 30 846 24.98 5.1 41.1 61 -1.8 28.7 5.429 0.214
10:26 1016 30 846 24.98 5 41 61 -1.9 28.7 5.361 0.211
10:27 1016 30 846 24.98 5 41 61 -2 28.5 5.349 0.211
10:28 1016 30 846 24.98 5 41 62 -1.8 28.8 5.349 0.211
10:29 1016 30 846 24.98 5.1 41.1 61 -1.8 28.8 5.468 0.215
10:30 1016 30 845 24.95 5.3 41.5 63 -1.1 29.9 5.621 0.221
10:31 1016 30 846 24.98 5.3 41.6 59 -2 28.5 5.717 0.225
10:32 1016 30 845 24.95 5.4 41.7 59 -2 28.4 5.762 0.227
10:33 1016 30 846 24.98 5.4 41.7 60 -1.8 28.8 5.734 0.226
10:34 1016 30 846 24.98 5.3 41.6 61 -1.6 29 5.7 0.224
10:35 1016 30 845 24.95 5.3 41.6 62 -1.4 29.5 5.745 0.226
10:36 1016 30 845 24.95 5.4 41.8 59 -2 28.4 5.835 0.23
10:37 1016 30 845 24.95 5.4 41.7 58 -2.3 27.9 5.801 0.228
10:38 1016 30 845 24.95 5.4 41.8 59 -1.8 28.7 5.813 0.229
10:39 1016 30 845 24.95 5.5 41.8 61 -1.4 29.4 5.841 0.23
10:40 1016 30 845 24.95 5.5 41.9 57 -2.3 27.9 5.835 0.23
10:41 1016 30 845 24.95 5.4 41.7 60 -1.8 28.8 5.756 0.227
10:42 1016 30 845 24.95 5.4 41.6 61 -1.5 29.3 5.728 0.226
10:43 1016 30 845 24.95 5.3 41.6 58 -2.3 27.9 5.728 0.226
10:44 1016 30 845 24.95 5.3 41.5 59 -2.1 28.3 5.699 0.224
10:45 1016 30 845 24.95 5.3 41.6 59 -2 28.3 5.745 0.226
10:46 1016 30 845 24.95 5.3 41.6 61 -1.6 29.1 5.705 0.225
10:47 1016 30 845 24.95 5.3 41.6 60 -1.7 28.9 5.716 0.225
10:48 1016 30 845 24.95 5.3 41.6 58 -2.2 28 5.705 0.225
10:49 1016 30 845 24.95 5.3 41.5 58 -2.2 28.1 5.705 0.225
10:50 1016 30 845 24.95 5.3 41.6 60 -1.8 28.8 5.739 0.226
10:51 1016 30 845 24.95 5.5 41.9 58 -2 28.4 5.897 0.232
10:52 1016 30 845 24.95 5.7 42.2 60 -1.4 29.5 6.118 0.241
10:53 1016 30 845 24.95 5.9 42.6 55 -2.4 27.7 6.265 0.247
10:54 1016 30 845 24.95 5.9 42.6 58 -1.7 29 6.254 0.246
10:55 1016 30 845 24.95 5.9 42.6 57 -2.1 28.2 6.265 0.247
10:56 1016 30 845 24.95 5.8 42.5 57 -2.2 28.1 6.191 0.244
10:57 1016 30 845 24.95 5.9 42.6 59 -1.4 29.4 6.214 0.245
10:58 1016 30 845 24.95 6.1 42.9 59 -1.3 29.6 6.514 0.256
10:59 1016 30 845 24.95 6.3 43.4 61 -0.7 30.8 6.706 0.264
11:00 1016 30 845 24.95 6.5 43.7 54 -2 28.3 6.91 0.272
11:01 1016 30 845 24.95 6.5 43.7 56 -1.7 29 6.854 0.27
11:02 1016 30 845 24.95 6.5 43.8 55 -1.8 28.7 6.978 0.275
11:03 1016 30 845 24.95 6.6 43.9 58 -1.2 29.9 6.933 0.273
11:04 1016 30 845 24.95 6.6 43.8 58 -1.2 29.9 6.927 0.273
11:05 1016 30 845 24.95 6.5 43.6 55 -2 28.5 6.791 0.267
11:06 1016 30 845 24.95 6.3 43.3 56 -1.8 28.8 6.616 0.26
11:07 1016 30 845 24.95 6.1 43 56 -1.9 28.5 6.474 0.255
11:08 1016 30 845 24.95 6 42.8 57 -2 28.5 6.35 0.25
11:09 1016 30 845 24.95 5.9 42.7 58 -1.7 29 6.292 0.248
11:10 1016 30 845 24.95 6.1 42.9 58 -1.5 29.3 6.501 0.256
11:11 1016 30 845 24.95 6.3 43.4 56 -1.7 28.9 6.682 0.263
11:12 1016 30 845 24.95 6.4 43.5 57 -1.6 29.2 6.788 0.267
11:13 1016 30 845 24.95 6.5 43.6 56 -1.6 29.1 6.868 0.27
11:14 1016 30 845 24.95 6.5 43.8 55 -1.8 28.8 6.947 0.274
11:15 1016 30 845 24.95 6.6 43.9 54 -2.1 28.2 6.97 0.274
11:16 1016 30 845 24.95 6.5 43.7 53 -2.3 27.8 6.896 0.271
11:17 1016 30 845 24.95 6.5 43.8 58 -1.2 29.8 6.924 0.273
11:18 1016 30 845 24.95 6.7 44.1 55 -1.7 29 7.14 0.281
11:19 1016 30 845 24.95 7 44.5 55 -1.5 29.3 7.39 0.291
11:20 1016 30 845 24.95 6.9 44.5 55 -1.5 29.3 7.3 0.287
11:21 1016 30 845 24.95 6.8 44.3 59 -0.7 30.7 7.15 0.281
11:22 1016 30 845 24.95 6.9 44.5 58 -0.8 30.5 7.4 0.291
11:23 1016 30 845 24.95 7.3 45.1 55 -1.2 29.9 7.66 0.302
11:24 1016 30 845 24.95 7.3 45.2 53 -1.5 29.3 7.71 0.304
11:25 1016 30 845 24.95 7.5 45.4 55 -0.9 30.4 7.76 0.306
11:26 1016 30 845 24.95 7.4 45.4 55 -1.1 30 7.79 0.307
11:27 1016 30 845 24.95 7.4 45.3 54 -1.4 29.5 7.76 0.306
11:28 1016 30 845 24.95 7.5 45.5 56 -0.7 30.8 7.87 0.31
11:29 1016 30 845 24.95 7.6 45.7 54 -1.1 30 8.08 0.318
11:30 1016 30 845 24.95 7.8 46 52 -1.5 29.3 8.13 0.32
11:31 1016 30 845 24.95 7.8 46 53 -1.3 29.7 8.1 0.319
11:32 1016 30 845 24.95 7.7 45.9 53 -1.1 30 8.11 0.319
11:33 1016 30 845 24.95 7.6 45.7 50 -2 28.4 7.97 0.314
11:34 1016 30 845 24.95 7.5 45.5 55 -0.9 30.3 7.84 0.309
11:35 1016 30 845 24.95 7.4 45.4 52 -1.6 29.1 7.78 0.306
11:36 1016 30 845 24.95 7.4 45.3 52 -1.7 28.9 7.75 0.305
11:37 1016 30 845 24.95 7.4 45.2 51 -2.1 28.2 7.67 0.302
11:38 1016 30 845 24.95 7.3 45.1 52 -1.9 28.6 7.66 0.302
11:39 1015 29.97 845 24.95 7.3 45.1 52 -1.8 28.7 7.64 0.301
11:40 1015 29.97 845 24.95 7.4 45.2 53 -1.5 29.3 7.77 0.306
11:41 1015 29.97 845 24.95 7.4 45.4 52 -1.8 28.8 7.82 0.308
11:42 1015 29.97 845 24.95 7.4 45.4 52 -1.8 28.8 7.77 0.306
11:43 1015 29.97 845 24.95 7.4 45.3 52 -1.8 28.7 7.73 0.304
11:44 1015 29.97 845 24.95 7.4 45.3 51 -2 28.3 7.75 0.305
11:45 1015 29.97 845 24.95 7.4 45.3 51 -2 28.4 7.76 0.306
11:46 1015 29.97 845 24.95 7.4 45.4 55 -0.9 30.3 7.84 0.309
11:47 1015 29.97 845 24.95 7.5 45.5 51 -1.9 28.6 7.83 0.308
11:48 1015 29.97 845 24.95 7.5 45.4 51 -2 28.4 7.82 0.308
11:49 1015 29.97 845 24.95 7.4 45.3 52 -1.8 28.7 7.76 0.306
11:50 1015 29.97 845 24.95 7.4 45.3 50 -2.2 28 7.83 0.308
11:51 1015 29.97 845 24.95 7.4 45.3 51 -2.1 28.2 7.79 0.307
11:52 1015 29.97 844 24.92 7.4 45.3 52 -1.8 28.7 7.76 0.306
11:53 1015 29.97 844 24.92 7.3 45.2 53 -1.5 29.3 7.68 0.302
11:54 1015 29.97 844 24.92 7.3 45.2 50 -2.3 27.9 7.69 0.303
11:55 1015 29.97 844 24.92 7.3 45.1 54 -1.5 29.3 7.64 0.301
11:56 1015 29.97 844 24.92 7.4 45.2 52 -1.8 28.8 7.78 0.306
11:57 1015 29.97 844 24.92 7.4 45.4 54 -1.2 29.9 7.86 0.309
11:58 1015 29.97 844 24.92 7.6 45.7 54 -1 30.2 8 0.315
11:59 1015 29.97 844 24.92 7.7 45.8 52 -1.5 29.3 8.05 0.317
12:00 1015 29.97 844 24.92 7.5 45.5 52 -1.8 28.8 7.87 0.31
12:01 1015 29.97 844 24.92 7.5 45.5 54 -1.2 29.8 7.94 0.313
12:02 1015 29.97 844 24.92 7.6 45.6 53 -1.4 29.5 7.97 0.314
12:03 1015 29.97 844 24.92 7.6 45.7 52 -1.5 29.2 8 0.315
12:04 1015 29.97 844 24.92 7.6 45.7 50 -2.2 28.1 8 0.315
12:05 1015 29.97 844 24.92 7.6 45.8 48 -2.6 27.3 7.99 0.315
12:06 1015 29.97 844 24.92 7.7 45.8 47 -2.9 26.8 8.04 0.317
12:07 1015 29.97 844 24.92 7.6 45.7 51 -2 28.5 8.01 0.315
12:08 1015 29.97 844 24.92 7.7 45.9 51 -1.9 28.6 8.12 0.32
12:09 1015 29.97 844 24.92 7.8 46 53 -1.2 29.8 8.2 0.323
12:10 1015 29.97 844 24.92 7.9 46.2 46 -2.9 26.8 8.28 0.326
12:11 1015 29.97 844 24.92 7.9 46.2 52 -1.4 29.5 8.28 0.326
12:12 1015 29.97 844 24.92 7.9 46.2 52 -1.2 29.8 8.24 0.324
12:13 1015 29.97 844 24.92 7.8 46.1 50 -2 28.5 8.24 0.324
12:14 1015 29.97 844 24.92 7.8 46.1 50 -1.9 28.7 8.14 0.32
12:15 1015 29.97 844 24.92 7.7 45.8 54 -1 30.2 8.03 0.316
12:16 1015 29.97 844 24.92 7.7 45.9 54 -1.1 30.1 8.11 0.319
12:17 1015 29.97 844 24.92 7.8 46 53 -1.2 29.9 8.12 0.32
12:18 1015 29.97 844 24.92 7.7 45.9 49 -2.3 27.9 8.07 0.318
12:19 1015 29.97 844 24.92 7.7 45.8 51 -1.7 29 8.03 0.316
12:20 1015 29.97 844 24.92 7.7 45.8 52 -1.5 29.3 8.01 0.315
12:21 1015 29.97 844 24.92 7.7 45.8 53 -1.3 29.6 8.07 0.318
12:22 1015 29.97 844 24.92 7.8 46.1 51 -1.7 28.9 8.22 0.324
12:23 1015 29.97 844 24.92 7.8 46 53 -1.2 29.8 8.17 0.322
12:24 1015 29.97 844 24.92 7.8 46 53 -1.3 29.6 8.1 0.319
12:25 1015 29.97 844 24.92 7.7 45.8 55 -0.8 30.6 8.07 0.318
12:26 1015 29.97 844 24.92 7.8 46 53 -1.3 29.7 8.13 0.32
12:27 1015 29.97 844 24.92 7.8 46.1 53 -1.1 30 8.22 0.324
12:28 1015 29.97 844 24.92 7.8 46.1 52 -1.3 29.6 8.21 0.323
12:29 1015 29.97 844 24.92 7.9 46.1 55 -0.5 31 8.2 0.323
12:30 1015 29.97 844 24.92 7.8 46.1 54 -0.9 30.4 8.2 0.323
12:31 1014 29.94 844 24.92 7.9 46.2 54 -0.8 30.5 8.3 0.327
12:32 1014 29.94 844 24.92 7.9 46.2 53 -1.1 30 8.27 0.326
12:33 1014 29.94 844 24.92 7.9 46.3 52 -1.2 29.8 8.34 0.328
12:34 1014 29.94 844 24.92 8 46.4 52 -1.3 29.6 8.35 0.329
12:35 1014 29.94 844 24.92 8 46.4 53 -0.9 30.4 8.36 0.329
12:36 1014 29.94 844 24.92 8.1 46.6 53 -1 30.2 8.46 0.333
12:37 1014 29.94 844 24.92 8 46.5 55 -0.5 31 8.41 0.331
12:38 1014 29.94 844 24.92 8 46.4 53 -1.1 30.1 8.31 0.327
12:39 1014 29.94 844 24.92 7.9 46.3 51 -1.7 28.9 8.29 0.326
12:40 1014 29.94 844 24.92 7.8 46.1 52 -1.3 29.7 8.26 0.325
12:41 1014 29.94 844 24.92 7.9 46.2 55 -0.7 30.8 8.25 0.325
12:42 1014 29.94 844 24.92 7.9 46.2 56 -0.4 31.3 8.27 0.326
12:43 1014 29.94 843 24.89 7.9 46.3 52 -1.2 29.8 8.33 0.328
12:44 1014 29.94 844 24.92 7.9 46.3 53 -1 30.2 8.27 0.326
12:45 1014 29.94 843 24.89 7.8 46.1 53 -1.2 29.9 8.19 0.322
12:46 1014 29.94 843 24.89 7.9 46.2 54 -0.9 30.5 8.29 0.326
12:47 1014 29.94 843 24.89 7.9 46.3 52 -1.2 29.8 8.29 0.326
12:48 1014 29.94 843 24.89 7.8 46 53 -1.2 29.9 8.13 0.32
12:49 1014 29.94 843 24.89 7.8 46 54 -0.9 30.3 8.14 0.32
12:50 1014 29.94 843 24.89 7.8 46 54 -0.8 30.5 8.15 0.321
12:51 1014 29.94 843 24.89 7.8 46 55 -0.5 31 8.23 0.324
12:52 1014 29.94 843 24.89 8 46.5 53 -0.9 30.5 8.44 0.332
12:53 1014 29.94 843 24.89 8.2 46.8 51 -1.3 29.7 8.65 0.341
12:54 1014 29.94 843 24.89 8.2 46.7 55 -0.4 31.4 8.49 0.334
12:55 1014 29.94 843 24.89 8.2 46.7 54 -0.5 31.1 8.59 0.338
12:56 1014 29.94 843 24.89 8.5 47.2 52 -0.9 30.4 8.88 0.35
12:57 1014 29.94 843 24.89 8.5 47.3 52 -0.9 30.5 8.84 0.348
12:58 1014 29.94 843 24.89 8.4 47.1 51 -1 30.1 8.73 0.344
12:59 1014 29.94 843 24.89 8.4 47 56 0.1 32.2 8.81 0.347
13:00 1014 29.94 843 24.89 8.5 47.3 54 -0.3 31.4 8.87 0.349
13:01 1014 29.94 843 24.89 8.3 47 54 -0.5 31.1 8.68 0.342
13:02 1014 29.94 843 24.89 8.2 46.8 55 -0.3 31.5 8.59 0.338
13:03 1014 29.94 843 24.89 8.2 46.8 52 -1 30.3 8.59 0.338
13:04 1014 29.94 843 24.89 8.1 46.5 54 -0.6 31 8.43 0.332
13:05 1014 29.94 843 24.89 8.1 46.5 55 -0.4 31.3 8.45 0.333
13:06 1014 29.94 843 24.89 8.1 46.6 52 -1.1 30 8.51 0.335
13:07 1014 29.94 843 24.89 8 46.4 54 -0.8 30.6 8.36 0.329
13:08 1014 29.94 843 24.89 7.9 46.2 54 -0.9 30.4 8.27 0.326
13:09 1014 29.94 843 24.89 7.9 46.3 53 -1.1 30.1 8.35 0.329
13:10 1014 29.94 843 24.89 8.1 46.6 53 -0.9 30.4 8.58 0.338
13:11 1014 29.94 843 24.89 8.3 47 51 -1.2 29.9 8.72 0.343
13:12 1014 29.94 843 24.89 8.2 46.8 54 -0.6 30.9 8.61 0.339
13:13 1014 29.94 843 24.89 8.1 46.6 53 -0.9 30.4 8.42 0.331
13:14 1014 29.94 843 24.89 8 46.3 52 -1.4 29.5 8.27 0.326
13:15 1014 29.94 843 24.89 7.8 46 52 -1.5 29.3 8.17 0.322
13:16 1014 29.94 843 24.89 7.9 46.2 56 -0.2 31.6 8.29 0.326
13:17 1014 29.94 843 24.89 8.1 46.6 55 -0.3 31.4 8.57 0.337
13:18 1014 29.94 843 24.89 8.3 47 55 -0.2 31.7 8.79 0.346
13:19 1014 29.94 843 24.89 8.4 47.1 53 -0.7 30.8 8.79 0.346
13:20 1014 29.94 843 24.89 8.3 46.9 50 -1.4 29.5 8.55 0.337
13:21 1014 29.94 843 24.89 8 46.3 53 -1 30.3 8.32 0.328
13:22 1014 29.94 843 24.89 7.9 46.3 54 -0.8 30.6 8.28 0.326
13:23 1014 29.94 843 24.89 7.9 46.2 54 -0.9 30.3 8.24 0.324
13:24 1014 29.94 843 24.89 7.9 46.2 54 -0.9 30.3 8.28 0.326
13:25 1014 29.94 843 24.89 7.8 46.1 52 -1.5 29.3 8.23 0.324
13:26 1014 29.94 843 24.89 7.6 45.7 55 -0.8 30.6 7.96 0.313
13:27 1014 29.94 843 24.89 7.4 45.4 56 -0.7 30.8 7.82 0.308
13:28 1014 29.94 843 24.89 7.4 45.3 53 -1.6 29.2 7.72 0.304
13:29 1014 29.94 843 24.89 7.4 45.3 55 -1 30.2 7.83 0.308
13:30 1014 29.94 843 24.89 7.6 45.7 54 -1.2 29.8 8.04 0.317
13:31 1014 29.94 843 24.89 7.6 45.8 53 -1.2 29.8 8.03 0.316
13:32 1013 29.91 843 24.89 7.6 45.6 54 -1.1 30.1 7.99 0.315
13:33 1013 29.91 843 24.89 7.6 45.7 56 -0.6 30.8 7.99 0.315
13:34 1013 29.91 843 24.89 7.7 45.8 53 -1.2 29.8 8.07 0.318
13:35 1013 29.91 843 24.89 7.7 45.8 53 -1.2 29.8 8.01 0.315
13:36 1013 29.91 843 24.89 7.6 45.6 54 -1.1 30.1 7.95 0.313
13:37 1013 29.91 843 24.89 7.6 45.6 54 -1.1 30 7.96 0.313
13:38 1013 29.91 843 24.89 7.6 45.6 52 -1.5 29.2 7.94 0.313
13:39 1013 29.91 843 24.89 7.7 45.8 54 -1.1 30 8.04 0.317
13:40 1013 29.91 843 24.89 7.8 46 54 -0.9 30.5 8.15 0.321
13:41 1013 29.91 843 24.89 7.9 46.2 52 -1.2 29.8 8.29 0.326
13:42 1013 29.91 842 24.86 7.9 46.2 53 -1 30.1 8.3 0.327
13:43 1013 29.91 842 24.86 8 46.4 53 -0.9 30.4 8.38 0.33
13:44 1013 29.91 842 24.86 8.1 46.6 54 -0.6 30.9 8.47 0.333
13:45 1013 29.91 842 24.86 8.2 46.7 53 -0.9 30.4 8.55 0.337
13:46 1013 29.91 842 24.86 8.2 46.8 52 -0.9 30.3 8.6 0.339
13:47 1013 29.91 842 24.86 8.3 46.9 51 -1.2 29.8 8.73 0.344
13:48 1013 29.91 842 24.86 8.5 47.2 51 -1.1 29.9 8.84 0.348
13:49 1013 29.91 842 24.86 8.5 47.3 54 -0.2 31.6 8.88 0.35
13:50 1013 29.91 842 24.86 8.6 47.4 52 -0.8 30.5 8.94 0.352
13:51 1013 29.91 842 24.86 8.6 47.4 50 -1.1 30 8.98 0.354
13:52 1013 29.91 842 24.86 8.7 47.6 53 -0.4 31.3 9.04 0.356
13:53 1013 29.91 842 24.86 8.7 47.7 56 0.4 32.8 9.2 0.362
13:54 1013 29.91 842 24.86 9 48.1 51 -0.7 30.7 9.34 0.368
13:55 1013 29.91 842 24.86 8.9 48.1 53 -0.2 31.6 9.28 0.365
13:56 1013 29.91 842 24.86 8.9 48 51 -0.6 30.9 9.29 0.366
13:57 1013 29.91 842 24.86 9.1 48.4 49 -1 30.3 9.51 0.374
13:58 1013 29.91 842 24.86 9 48.3 52 -0.3 31.4 9.39 0.37
13:59 1013 29.91 842 24.86 9 48.2 51 -0.6 31 9.35 0.368
14:00 1013 29.91 842 24.86 9.2 48.5 48 -1.2 29.8 9.56 0.376
14:01 1013 29.91 842 24.86 9.1 48.4 50 -0.8 30.6 9.44 0.372
14:02 1013 29.91 842 24.86 9.1 48.4 51 -0.6 31 9.55 0.376
14:03 1013 29.91 842 24.86 9.1 48.4 50 -0.6 30.9 9.45 0.372
14:04 1013 29.91 842 24.86 9.1 48.5 50 -0.7 30.8 9.58 0.377
14:05 1013 29.91 842 24.86 9.2 48.5 52 -0.2 31.6 9.53 0.375
14:06 1013 29.91 842 24.86 9 48.3 51 -0.6 30.9 9.4 0.37
14:07 1013 29.91 842 24.86 8.9 48.1 49 -1.1 29.9 9.28 0.365
14:08 1013 29.91 842 24.86 8.9 47.9 52 -0.3 31.5 9.2 0.362
14:09 1013 29.91 842 24.86 8.8 47.9 51 -0.8 30.6 9.24 0.364
14:10 1013 29.91 842 24.86 8.9 48 50 -0.8 30.5 9.29 0.366
14:11 1013 29.91 842 24.86 8.8 47.9 50 -1.1 30.1 9.23 0.363
14:12 1013 29.91 842 24.86 8.7 47.7 53 -0.3 31.5 9.15 0.36
14:13 1013 29.91 842 24.86 8.8 47.9 50 -0.9 30.4 9.22 0.363
14:14 1013 29.91 842 24.86 8.8 47.9 50 -0.9 30.4 9.19 0.362
14:15 1013 29.91 842 24.86 8.9 48 50 -1 30.2 9.3 0.366
14:16 1013 29.91 842 24.86 9.1 48.3 48 -1.2 29.8 9.44 0.372
14:17 1013 29.91 842 24.86 9.1 48.3 48 -1.4 29.5 9.43 0.371
14:18 1013 29.91 842 24.86 9.1 48.5 49 -0.9 30.3 9.54 0.376
14:19 1013 29.91 842 24.86 9.2 48.5 52 -0.1 31.8 9.58 0.377
14:20 1013 29.91 842 24.86 9.2 48.6 49 -1 30.2 9.62 0.379
14:21 1013 29.91 842 24.86 9.1 48.4 50 -0.7 30.7 9.43 0.371
14:22 1013 29.91 842 24.86 9 48.2 49 -1.2 29.8 9.38 0.369
14:23 1013 29.91 842 24.86 9 48.3 51 -0.4 31.2 9.45 0.372
14:24 1013 29.91 842 24.86 9.2 48.5 52 -0.2 31.7 9.6 0.378
14:25 1013 29.91 842 24.86 9.3 48.8 50 -0.4 31.2 9.76 0.384
14:26 1013 29.91 842 24.86 9.3 48.8 50 -0.6 30.9 9.72 0.383
14:27 1013 29.91 842 24.86 9.3 48.7 49 -0.9 30.3 9.65 0.38
14:28 1013 29.91 842 24.86 9.4 48.9 50 -0.5 31 9.78 0.385
14:29 1013 29.91 842 24.86 9.6 49.3 47 -1 30.3 10.05 0.396
14:30 1013 29.91 842 24.86 9.6 49.2 47 -1.1 29.9 9.89 0.389
14:31 1013 29.91 842 24.86 9.3 48.7 52 -0.2 31.7 9.64 0.38
14:32 1012 29.88 842 24.86 9.3 48.7 50 -0.5 31 9.65 0.38
14:33 1012 29.88 842 24.86 9.3 48.8 51 -0.4 31.4 9.76 0.384
14:34 1012 29.88 842 24.86 9.4 48.9 49 -0.7 30.8 9.78 0.385
14:35 1012 29.88 842 24.86 9.4 48.8 49 -0.9 30.4 9.71 0.382
14:36 1012 29.88 842 24.86 9.3 48.7 50 -0.6 30.8 9.64 0.38
14:37 1012 29.88 842 24.86 9.2 48.6 51 -0.2 31.6 9.56 0.376
14:38 1012 29.88 842 24.86 9.2 48.6 53 0.1 32.2 9.63 0.379
14:39 1012 29.88 841 24.83 9.3 48.7 51 -0.2 31.6 9.72 0.383
14:40 1012 29.88 842 24.86 9.3 48.8 50 -0.6 30.9 9.72 0.383
14:41 1012 29.88 842 24.86 9.2 48.6 50 -0.6 31 9.62 0.379
14:42 1012 29.88 842 24.86 9.1 48.3 52 -0.4 31.4 9.41 0.37
14:43 1012 29.88 842 24.86 9 48.3 53 -0 32 9.41 0.37
14:44 1012 29.88 841 24.83 9.2 48.6 50 -0.5 31 9.65 0.38
14:45 1012 29.88 842 24.86 9.3 48.7 49 -0.7 30.7 9.62 0.379
14:46 1012 29.88 841 24.83 9.1 48.4 52 -0.2 31.6 9.47 0.373
14:47 1012 29.88 841 24.83 9.1 48.3 52 -0.1 31.8 9.43 0.371
14:48 1012 29.88 841 24.83 9.1 48.3 51 -0.6 31 9.47 0.373
14:49 1012 29.88 841 24.83 9 48.2 51 -0.6 30.9 9.4 0.37
14:50 1012 29.88 841 24.83 9 48.2 54 0.1 32.3 9.43 0.371
14:51 1012 29.88 841 24.83 9.1 48.3 52 -0.1 31.8 9.49 0.374
14:52 1012 29.88 841 24.83 9.1 48.4 53 0.2 32.3 9.53 0.375
14:53 1012 29.88 841 24.83 9.2 48.6 52 -0.1 31.7 9.65 0.38
14:54 1012 29.88 841 24.83 9.3 48.7 53 0.2 32.4 9.69 0.381
14:55 1012 29.88 841 24.83 9.3 48.7 53 0.1 32.2 9.69 0.381
14:56 1012 29.88 841 24.83 9.2 48.5 53 0.3 32.5 9.54 0.376
14:57 1012 29.88 841 24.83 9.1 48.4 53 0.2 32.3 9.51 0.374
14:58 1012 29.88 841 24.83 9.1 48.4 54 0.3 32.5 9.51 0.374
14:59 1012 29.88 841 24.83 9.1 48.4 54 0.3 32.5 9.55 0.376
15:00 1012 29.88 841 24.83 9.2 48.5 54 0.3 32.5 9.54 0.376
15:01 1012 29.88 841 24.83 9.1 48.3 53 -0 32 9.46 0.372
15:02 1012 29.88 841 24.83 9 48.3 53 -0.1 31.8 9.42 0.371
15:03 1012 29.88 841 24.83 9.1 48.3 52 -0.3 31.4 9.45 0.372
15:04 1012 29.88 841 24.83 9.1 48.3 52 -0.2 31.6 9.43 0.371
15:05 1012 29.88 841 24.83 9 48.2 53 -0.1 31.9 9.35 0.368
15:06 1012 29.88 841 24.83 9 48.1 53 -0.1 31.9 9.34 0.368
15:07 1012 29.88 841 24.83 8.9 48.1 52 -0.2 31.6 9.3 0.366
15:08 1012 29.88 841 24.83 8.9 48 52 -0.4 31.3 9.32 0.367
15:09 1012 29.88 841 24.83 9 48.2 53 -0.1 31.8 9.37 0.369
15:10 1012 29.88 841 24.83 9 48.2 55 0.4 32.7 9.44 0.372
15:11 1012 29.88 841 24.83 9.2 48.6 52 -0.1 31.8 9.67 0.381
15:12 1012 29.88 841 24.83 9.3 48.8 53 0.4 32.6 9.73 0.383
15:13 1012 29.88 841 24.83 9.4 48.8 52 0.1 32.2 9.73 0.383
15:14 1012 29.88 841 24.83 9.3 48.7 55 0.8 33.4 9.69 0.381
15:15 1012 29.88 841 24.83 9.4 48.9 54 0.6 33.2 9.84 0.387
15:16 1012 29.88 841 24.83 9.5 49.1 53 0.5 32.8 9.9 0.39
15:17 1012 29.88 841 24.83 9.5 49.1 53 0.4 32.7 9.89 0.389
15:18 1012 29.88 841 24.83 9.5 49 52 0.2 32.4 9.87 0.389
15:19 1012 29.88 841 24.83 9.5 49.1 53 0.4 32.7 9.89 0.389
15:20 1012 29.88 841 24.83 9.4 49 50 -0.4 31.4 9.85 0.388
15:21 1012 29.88 841 24.83 9.4 49 53 0.2 32.4 9.8 0.386
15:22 1012 29.88 841 24.83 9.4 48.9 52 -0.1 31.9 9.83 0.387
15:23 1012 29.88 841 24.83 9.3 48.7 54 0.4 32.7 9.71 0.382
15:24 1012 29.88 841 24.83 9.4 48.8 52 -0 32 9.76 0.384
15:25 1012 29.88 841 24.83 9.3 48.8 52 -0 31.9 9.76 0.384
15:26 1012 29.88 841 24.83 9.4 48.8 54 0.5 32.9 9.77 0.385
15:27 1012 29.88 841 24.83 9.5 49 52 0.1 32.1 9.88 0.389
15:28 1012 29.88 841 24.83 9.5 49.1 53 0.4 32.8 9.88 0.389
15:29 1012 29.88 841 24.83 9.4 48.9 53 0.3 32.5 9.76 0.384
15:30 1012 29.88 841 24.83 9.4 48.9 55 0.7 33.3 9.83 0.387
15:31 1012 29.88 841 24.83 9.6 49.2 53 0.6 33 9.97 0.393
15:32 1012 29.88 841 24.83 9.6 49.2 52 0.4 32.7 10.01 0.394
15:33 1012 29.88 841 24.83 9.6 49.3 52 0.4 32.7 10.02 0.394
15:34 1012 29.88 841 24.83 9.6 49.3 52 0.3 32.6 10.05 0.396
15:35 1011 29.85 841 24.83 9.7 49.4 53 0.7 33.2 10.05 0.396
15:36 1011 29.85 841 24.83 9.8 49.6 51 0.2 32.3 10.18 0.401
15:37 1011 29.85 841 24.83 9.7 49.5 53 0.6 33.1 10.11 0.398
15:38 1011 29.85 841 24.83 9.6 49.4 52 0.3 32.6 10.07 0.396
15:39 1011 29.85 841 24.83 9.6 49.2 51 -0.1 31.9 10.05 0.396
15:40 1011 29.85 841 24.83 9.6 49.3 53 0.6 33 10.02 0.394
15:41 1011 29.85 841 24.83 9.6 49.3 51 -0.1 31.8 10.04 0.395
15:42 1011 29.85 841 24.83 9.6 49.4 52 0.2 32.4 10.08 0.397
15:43 1011 29.85 841 24.83 9.7 49.4 53 0.6 33 10.12 0.398
15:44 1011 29.85 841 24.83 9.7 49.5 52 0.5 32.9 10.17 0.4
15:45 1011 29.85 841 24.83 9.7 49.4 51 0.1 32.2 10.08 0.397
15:46 1011 29.85 841 24.83 9.7 49.4 52 0.4 32.6 10.04 0.395
15:47 1011 29.85 840 24.81 9.7 49.5 51 0.1 32.1 10.14 0.399
15:48 1011 29.85 840 24.81 9.7 49.5 52 0.5 32.9 10.1 0.398
15:49 1011 29.85 840 24.81 9.7 49.4 54 0.8 33.5 10.11 0.398
15:50 1011 29.85 840 24.81 9.7 49.4 51 0.1 32.2 10.09 0.397
15:51 1011 29.85 840 24.81 9.7 49.4 54 0.8 33.4 10.12 0.398
15:52 1011 29.85 840 24.81 9.9 49.7 54 1.1 33.9 10.28 0.405
15:53 1011 29.85 840 24.81 9.9 49.8 52 0.6 33 10.28 0.405
15:54 1011 29.85 840 24.81 9.9 49.8 52 0.4 32.7 10.24 0.403
15:55 1011 29.85 840 24.81 9.8 49.7 49 -0.2 31.6 10.25 0.404
15:56 1011 29.85 840 24.81 9.7 49.5 50 -0 32 10.15 0.4
15:57 1011 29.85 840 24.81 9.8 49.6 52 0.5 32.9 10.14 0.399
15:58 1011 29.85 840 24.81 9.8 49.6 51 0.2 32.3 10.21 0.402
15:59 1011 29.85 840 24.81 9.8 49.7 50 0 32 10.24 0.403
16:00 1011 29.85 840 24.81 9.8 49.7 52 0.4 32.7 10.21 0.402
16:01 1011 29.85 840 24.81 9.8 49.7 52 0.6 33 10.26 0.404
16:02 1011 29.85 840 24.81 9.9 49.7 52 0.4 32.7 10.21 0.402
16:03 1011 29.85 840 24.81 9.8 49.7 51 0.3 32.5 10.2 0.402
16:04 1011 29.85 840 24.81 9.8 49.7 50 -0 32 10.25 0.404
16:05 1011 29.85 840 24.81 9.9 49.7 49 -0.4 31.3 10.22 0.402
16:06 1011 29.85 840 24.81 9.8 49.7 51 0.2 32.4 10.19 0.401
16:07 1011 29.85 840 24.81 9.9 49.8 48 -0.4 31.2 10.3 0.406
16:08 1011 29.85 840 24.81 10 49.9 50 -0.1 31.9 10.37 0.408
16:09 1011 29.85 840 24.81 10.1 50.1 48 -0.4 31.3 10.51 0.414
16:10 1011 29.85 840 24.81 10.2 50.3 48 -0.4 31.2 10.62 0.418
16:11 1011 29.85 840 24.81 10.3 50.5 48 -0.4 31.3 10.65 0.419
16:12 1011 29.85 840 24.81 10.3 50.5 48 -0.3 31.5 10.64 0.419
16:13 1011 29.85 840 24.81 10.4 50.6 49 0.1 32.2 10.8 0.425
16:14 1011 29.85 840 24.81 10.5 50.9 46 -0.6 30.8 10.87 0.428
16:15 1011 29.85 840 24.81 10.5 50.8 48 0 32.1 10.87 0.428
16:16 1011 29.85 840 24.81 10.4 50.8 46 -0.7 30.7 10.82 0.426
16:17 1011 29.85 840 24.81 10.3 50.6 49 0.1 32.1 10.8 0.425
16:18 1011 29.85 840 24.81 10.4 50.7 47 -0.5 31.2 10.83 0.426
16:19 1011 29.85 840 24.81 10.4 50.7 48 -0.1 31.9 10.81 0.426
16:20 1011 29.85 840 24.81 10.5 50.8 48 -0.1 31.8 10.88 0.428
16:21 1011 29.85 840 24.81 10.6 51 45 -0.7 30.8 10.94 0.431
16:22 1011 29.85 840 24.81 10.6 51 48 0 32 10.98 0.432
16:23 1011 29.85 840 24.81 10.6 51.1 48 0.1 32.2 10.99 0.433
16:24 1011 29.85 840 24.81 10.6 51.1 46 -0.5 31.1 10.99 0.433
16:25 1011 29.85 840 24.81 10.6 51 45 -1 30.3 10.93 0.43
16:26 1011 29.85 840 24.81 10.5 50.9 47 -0.2 31.7 10.85 0.427
16:27 1011 29.85 840 24.81 10.5 50.9 45 -1 30.2 10.93 0.43
16:28 1011 29.85 840 24.81 10.5 51 47 -0.4 31.3 10.97 0.432
16:29 1011 29.85 840 24.81 10.6 51.1 43 -1.4 29.5 11.01 0.433
16:30 1011 29.85 840 24.81 10.6 51 46 -0.6 30.9 10.97 0.432
16:31 1011 29.85 840 24.81 10.5 51 46 -0.6 30.9 10.9 0.429
16:32 1011 29.85 840 24.81 10.5 50.8 45 -1 30.2 10.85 0.427
16:33 1011 29.85 840 24.81 10.4 50.7 44 -1.4 29.5 10.75 0.423
16:34 1011 29.85 840 24.81 10.3 50.6 46 -0.7 30.8 10.7 0.421
16:35 1010 29.83 840 24.81 10.3 50.6 45 -0.9 30.3 10.67 0.42
16:36 1011 29.85 840 24.81 10.3 50.6 44 -1.3 29.6 10.69 0.421
16:37 1011 29.85 840 24.81 10.3 50.6 43 -1.8 28.8 10.7 0.421
16:38 1010 29.83 840 24.81 10.3 50.5 44 -1.3 29.6 10.7 0.421
16:39 1010 29.83 840 24.81 10.3 50.6 45 -0.9 30.4 10.72 0.422
16:40 1010 29.83 840 24.81 10.4 50.7 44 -1.3 29.7 10.81 0.426
16:41 1010 29.83 840 24.81 10.4 50.7 45 -0.8 30.5 10.84 0.427
16:42 1010 29.83 840 24.81 10.5 50.8 42 -1.8 28.8 10.86 0.428
16:43 1010 29.83 840 24.81 10.4 50.7 43 -1.6 29.2 10.79 0.425
16:44 1010 29.83 840 24.81 10.4 50.7 45 -1.1 30.1 10.72 0.422
16:45 1010 29.83 840 24.81 10.3 50.5 45 -1 30.2 10.69 0.421
16:46 1010 29.83 840 24.81 10.3 50.6 44 -1.2 29.8 10.71 0.422
16:47 1010 29.83 840 24.81 10.4 50.6 43 -1.5 29.2 10.71 0.422
16:48 1010 29.83 840 24.81 10.3 50.6 43 -1.6 29.2 10.76 0.424
16:49 1010 29.83 840 24.81 10.3 50.6 45 -1.1 30.1 10.74 0.423
16:50 1010 29.83 840 24.81 10.3 50.6 45 -1.1 29.9 10.77 0.424
16:51 1010 29.83 840 24.81 10.4 50.6 43 -1.5 29.3 10.77 0.424
16:52 1010 29.83 840 24.81 10.3 50.6 41 -2.3 27.9 10.76 0.424
16:53 1010 29.83 840 24.81 10.4 50.7 44 -1.4 29.5 10.74 0.423
16:54 1010 29.83 839 24.78 10.4 50.7 44 -1.4 29.5 10.74 0.423
16:55 1010 29.83 839 24.78 10.4 50.7 43 -1.6 29.2 10.78 0.424
16:56 1010 29.83 839 24.78 10.4 50.8 41 -2.1 28.2 10.8 0.425
16:57 1010 29.83 839 24.78 10.4 50.7 43 -1.7 28.9 10.79 0.425
16:58 1010 29.83 839 24.78 10.4 50.8 43 -1.7 29 10.81 0.426
16:59 1010 29.83 839 24.78 10.4 50.7 43 -1.5 29.3 10.81 0.426
17:00 1010 29.83 839 24.78 10.4 50.8 42 -1.8 28.7 10.86 0.428
17:01 1010 29.83 839 24.78 10.5 50.9 44 -1.2 29.9 10.88 0.428
17:02 1010 29.83 839 24.78 10.5 50.9 44 -1.1 30 10.88 0.428
17:03 1010 29.83 839 24.78 10.5 51 43 -1.3 29.6 10.95 0.431
17:04 1010 29.83 839 24.78 10.6 51 44 -1.3 29.7 10.98 0.432
17:05 1010 29.83 839 24.78 10.6 51.1 42 -1.6 29 11.01 0.433
17:06 1010 29.83 839 24.78 10.6 51.1 43 -1.3 29.7 11 0.433
17:07 1010 29.83 839 24.78 10.6 51.1 43 -1.3 29.6 10.98 0.432
17:08 1010 29.83 839 24.78 10.6 51 43 -1.3 29.7 10.94 0.431
17:09 1010 29.83 839 24.78 10.6 51.1 43 -1.5 29.4 11.01 0.433
17:10 1010 29.83 839 24.78 10.6 51.1 43 -1.5 29.3 10.94 0.431
17:11 1010 29.83 839 24.78 10.6 51 43 -1.4 29.4 10.92 0.43
17:12 1010 29.83 839 24.78 10.6 51 44 -1.2 29.8 10.94 0.431
17:13 1010 29.83 839 24.78 10.5 50.9 42 -1.7 28.9 10.88 0.428
17:14 1010 29.83 839 24.78 10.5 51 43 -1.5 29.3 10.9 0.429
17:15 1010 29.83 839 24.78 10.6 51 44 -1.2 29.8 10.96 0.431
17:16 1010 29.83 839 24.78 10.6 51 46 -0.6 30.9 11 0.433
17:17 1010 29.83 839 24.78 10.6 51.1 44 -1.2 29.8 11.02 0.434
17:18 1010 29.83 839 24.78 10.6 51 42 -1.9 28.6 10.97 0.432
17:19 1010 29.83 839 24.78 10.6 51 42 -1.7 29 10.95 0.431
17:20 1010 29.83 839 24.78 10.6 51 42 -1.9 28.6 10.96 0.431
17:21 1010 29.83 839 24.78 10.6 51.1 42 -1.8 28.8 11.03 0.434
17:22 1010 29.83 839 24.78 10.6 51.1 42 -1.8 28.7 11.06 0.435
17:23 1010 29.83 839 24.78 10.7 51.2 41 -1.9 28.5 11.02 0.434
17:24 1010 29.83 839 24.78 10.6 51.1 43 -1.4 29.5 10.99 0.433
17:25 1010 29.83 839 24.78 10.6 51 41 -2.1 28.3 10.94 0.431
17:26 1010 29.83 839 24.78 10.5 51 43 -1.4 29.5 10.94 0.431
17:27 1010 29.83 839 24.78 10.5 51 42 -1.7 29 10.95 0.431
17:28 1010 29.83 839 24.78 10.6 51 43 -1.5 29.3 10.95 0.431
17:29 1010 29.83 839 24.78 10.5 51 42 -1.9 28.5 10.9 0.429
17:30 1010 29.83 839 24.78 10.5 51 42 -1.8 28.8 10.92 0.43
17:31 1010 29.83 839 24.78 10.5 50.9 43 -1.4 29.4 10.89 0.429
17:32 1010 29.83 839 24.78 10.5 50.9 42 -1.9 28.6 10.87 0.428
17:33 1010 29.83 839 24.78 10.5 50.9 43 -1.6 29.1 10.9 0.429
17:34 1010 29.83 839 24.78 10.5 50.9 43 -1.6 29.2 10.9 0.429
17:35 1010 29.83 839 24.78 10.5 50.8 43 -1.5 29.3 10.84 0.427
17:36 1010 29.83 839 24.78 10.5 50.8 45 -0.8 30.5 10.85 0.427
17:37 1010 29.83 839 24.78 10.5 50.8 43 -1.7 29 10.84 0.427
17:38 1010 29.83 839 24.78 10.4 50.8 44 -1.2 29.8 10.84 0.427
17:39 1010 29.83 839 24.78 10.4 50.8 44 -1.2 29.8 10.83 0.426
17:40 1010 29.83 839 24.78 10.4 50.8 43 -1.5 29.2 10.82 0.426
17:41 1010 29.83 839 24.78 10.4 50.8 44 -1.4 29.6 10.81 0.426
17:42 1010 29.83 839 24.78 10.4 50.8 43 -1.4 29.4 10.82 0.426
17:43 1010 29.83 839 24.78 10.5 50.8 44 -1.4 29.6 10.91 0.43
17:44 1010 29.83 839 24.78 10.5 50.8 44 -1.1 30 10.9 0.429
17:45 1010 29.83 839 24.78 10.5 50.9 42 -1.8 28.8 10.89 0.429
17:46 1010 29.83 839 24.78 10.5 51 42 -1.7 29 10.92 0.43
17:47 1010 29.83 839 24.78 10.6 51 42 -1.7 28.9 10.94 0.431
17:48 1010 29.83 839 24.78 10.5 51 43 -1.6 29.2 10.95 0.431
17:49 1010 29.83 839 24.78 10.6 51.1 44 -1 30.3 10.97 0.432
17:50 1010 29.83 839 24.78 10.6 51 44 -1.1 30.1 10.97 0.432
17:51 1010 29.83 839 24.78 10.6 51 44 -1.3 29.7 10.95 0.431
17:52 1010 29.83 839 24.78 10.5 51 42 -1.7 28.9 10.94 0.431
17:53 1009 29.8 839 24.78 10.6 51 46 -0.4 31.3 10.95 0.431
17:54 1009 29.8 839 24.78 10.6 51 45 -0.9 30.4 10.95 0.431
17:55 1009 29.8 839 24.78 10.5 51 45 -0.7 30.7 10.93 0.43
17:56 1009 29.8 839 24.78 10.5 50.9 45 -0.9 30.3 10.89 0.429
17:57 1009 29.8 839 24.78 10.5 50.9 44 -1.3 29.7 10.9 0.429
17:58 1009 29.8 839 24.78 10.5 50.9 44 -1.2 29.9 10.85 0.427
17:59 1009 29.8 839 24.78 10.5 50.9 45 -1 30.2 10.87 0.428
18:00 1009 29.8 839 24.78 10.5 50.8 44 -1.3 29.6 10.85 0.427
18:01 1009 29.8 839 24.78 10.5 50.8 47 -0.4 31.2 10.91 0.43
18:02 1009 29.8 839 24.78 10.5 50.8 44 -1.1 30 10.9 0.429
18:03 1009 29.8 839 24.78 10.5 50.9 46 -0.7 30.7 10.87 0.428
18:04 1009 29.8 839 24.78 10.4 50.8 46 -0.8 30.6 10.85 0.427
18:05 1009 29.8 839 24.78 10.5 50.8 44 -1.2 29.8 10.87 0.428
18:06 1009 29.8 839 24.78 10.4 50.8 45 -0.8 30.5 10.8 0.425
18:07 1009 29.8 839 24.78 10.4 50.7 46 -0.6 31 10.84 0.427
18:08 1009 29.8 839 24.78 10.4 50.8 46 -0.7 30.7 10.83 0.426
18:09 1009 29.8 839 24.78 10.4 50.7 44 -1.4 29.5 10.82 0.426
18:10 1009 29.8 839 24.78 10.4 50.7 44 -1.3 29.7 10.82 0.426
18:11 1009 29.8 839 24.78 10.4 50.8 46 -0.6 30.9 10.81 0.426
18:12 1009 29.8 839 24.78 10.4 50.7 45 -1 30.2 10.78 0.424
18:13 1009 29.8 839 24.78 10.4 50.6 46 -0.7 30.7 10.76 0.424
18:14 1009 29.8 839 24.78 10.3 50.6 45 -1 30.2 10.76 0.424
18:15 1009 29.8 838 24.75 10.3 50.6 46 -0.8 30.6 10.75 0.423
18:16 1009 29.8 838 24.75 10.4 50.6 45 -1.1 30 10.76 0.424
18:17 1009 29.8 838 24.75 10.3 50.6 46 -0.8 30.5 10.72 0.422
18:18 1009 29.8 838 24.75 10.3 50.5 48 -0.2 31.6 10.72 0.422
18:19 1009 29.8 838 24.75 10.3 50.6 46 -0.6 30.9 10.69 0.421
18:20 1009 29.8 839 24.78 10.3 50.5 46 -0.7 30.7 10.64 0.419
18:21 1009 29.8 839 24.78 10.3 50.5 48 -0.3 31.5 10.65 0.419
18:22 1009 29.8 838 24.75 10.2 50.4 46 -1 30.3 10.68 0.42
18:23 1009 29.8 839 24.78 10.3 50.5 45 -1.2 29.8 10.67 0.42
18:24 1009 29.8 839 24.78 10.3 50.5 45 -1 30.1 10.67 0.42
18:25 1009 29.8 839 24.78 10.3 50.5 45 -1.1 30.1 10.69 0.421
18:26 1009 29.8 839 24.78 10.3 50.5 46 -0.9 30.4 10.66 0.42
18:27 1009 29.8 839 24.78 10.3 50.5 46 -0.9 30.3 10.61 0.418
18:28 1009 29.8 839 24.78 10.2 50.4 45 -1.2 29.8 10.62 0.418
18:29 1009 29.8 838 24.75 10.2 50.4 46 -0.9 30.4 10.64 0.419
18:30 1009 29.8 838 24.75 10.2 50.3 45 -1.1 30.1 10.59 0.417
18:31 1009 29.8 838 24.75 10.1 50.2 47 -0.7 30.7 10.55 0.415
18:32 1009 29.8 838 24.75 10.2 50.3 46 -0.8 30.6 10.51 0.414
18:33 1009 29.8 838 24.75 10.1 50.2 45 -1.3 29.6 10.56 0.416
18:34 1009 29.8 838 24.75 10.2 50.3 44 -1.4 29.6 10.59 0.417
18:35 1009 29.8 838 24.75 10.2 50.3 45 -1.1 30.1 10.57 0.416
18:36 1009 29.8 838 24.75 10.2 50.3 45 -1.2 29.9 10.55 0.415
18:37 1009 29.8 838 24.75 10.1 50.3 46 -1 30.1 10.57 0.416
18:38 1009 29.8 838 24.75 10.2 50.3 46 -1 30.1 10.6 0.417
18:39 1009 29.8 838 24.75 10.2 50.3 45 -1.1 30 10.58 0.417
18:40 1009 29.8 838 24.75 10.1 50.2 46 -1.1 30.1 10.51 0.414
18:41 1009 29.8 838 24.75 10.1 50.2 46 -1 30.3 10.5 0.413
18:42 1009 29.8 838 24.75 10.1 50.1 48 -0.5 31.1 10.44 0.411
18:43 1009 29.8 838 24.75 10 50 46 -1 30.2 10.37 0.408
18:44 1009 29.8 838 24.75 10 50 47 -0.7 30.8 10.4 0.409
18:45 1009 29.8 838 24.75 10 49.9 46 -1 30.2 10.36 0.408
18:46 1009 29.8 838 24.75 9.9 49.8 47 -0.9 30.4 10.3 0.406
18:47 1009 29.8 838 24.75 9.9 49.7 47 -0.9 30.4 10.28 0.405
18:48 1009 29.8 838 24.75 9.8 49.7 48 -0.7 30.7 10.2 0.402
18:49 1009 29.8 838 24.75 9.8 49.7 47 -0.8 30.5 10.27 0.404
18:50 1009 29.8 838 24.75 9.8 49.7 48 -0.5 31.1 10.24 0.403
18:51 1009 29.8 838 24.75 9.8 49.6 46 -1.3 29.6 10.21 0.402
18:52 1009 29.8 838 24.75 9.8 49.7 46 -1.1 30 10.19 0.401
18:53 1009 29.8 838 24.75 9.8 49.6 46 -1.2 29.8 10.2 0.402
18:54 1009 29.8 839 24.78 9.8 49.6 47 -1.1 30.1 10.18 0.401
18:55 1009 29.8 838 24.75 9.8 49.6 46 -1.2 29.8 10.2 0.402
18:56 1009 29.8 838 24.75 9.8 49.7 47 -0.9 30.4 10.23 0.403
18:57 1009 29.8 839 24.78 9.8 49.6 47 -0.8 30.5 10.16 0.4
18:58 1009 29.8 838 24.75 9.7 49.5 46 -1.2 29.8 10.11 0.398
18:59 1009 29.8 838 24.75 9.8 49.6 46 -1.2 29.8 10.16 0.4
19:00 1009 29.8 839 24.78 9.8 49.6 46 -1.4 29.6 10.16 0.4
19:01 1009 29.8 838 24.75 9.8 49.6 46 -1.3 29.6 10.19 0.401
19:02 1009 29.8 839 24.78 9.8 49.7 45 -1.5 29.3 10.23 0.403
19:03 1009 29.8 839 24.78 9.9 49.8 44 -1.6 29.1 10.31 0.406
19:04 1009 29.8 839 24.78 10 49.9 44 -1.7 28.9 10.36 0.408
19:05 1009 29.8 839 24.78 10 50 44 -1.6 29.1 10.39 0.409
19:06 1009 29.8 839 24.78 10 49.9 45 -1.3 29.6 10.32 0.406
19:07 1009 29.8 839 24.78 10 49.9 46 -1.2 29.8 10.33 0.407
19:08 1009 29.8 839 24.78 9.9 49.9 44 -1.6 29.1 10.29 0.405
19:09 1009 29.8 839 24.78 9.9 49.8 44 -1.6 29.1 10.3 0.406
19:10 1009 29.8 839 24.78 9.9 49.8 47 -0.9 30.4 10.27 0.404
19:11 1009 29.8 839 24.78 9.8 49.7 46 -1.3 29.6 10.22 0.402
19:12 1009 29.8 839 24.78 9.8 49.7 46 -1.2 29.8 10.2 0.402
19:13 1009 29.8 839 24.78 9.8 49.7 45 -1.4 29.5 10.21 0.402
19:14 1009 29.8 838 24.75 9.9 49.8 45 -1.4 29.4 10.25 0.404
19:15 1009 29.8 838 24.75 9.9 49.8 45 -1.3 29.6 10.27 0.404
19:16 1009 29.8 838 24.75 9.8 49.7 47 -0.9 30.5 10.21 0.402
19:17 1009 29.8 839 24.78 9.7 49.5 48 -0.8 30.5 10.12 0.398
19:18 1009 29.8 839 24.78 9.7 49.4 45 -1.6 29 10.05 0.396
19:19 1009 29.8 839 24.78 9.7 49.4 46 -1.3 29.6 10.11 0.398
19:20 1009 29.8 839 24.78 9.7 49.5 47 -1.1 29.9 10.1 0.398
19:21 1009 29.8 839 24.78 9.7 49.4 48 -0.8 30.6 10.06 0.396
19:22 1009 29.8 839 24.78 9.6 49.2 46 -1.3 29.6 9.98 0.393
19:23 1009 29.8 839 24.78 9.6 49.2 48 -0.8 30.5 9.99 0.393
19:24 1009 29.8 839 24.78 9.6 49.3 46 -1.4 29.4 9.97 0.393
19:25 1009 29.8 839 24.78 9.6 49.4 48 -0.9 30.3 10.05 0.396
19:26 1009 29.8 839 24.78 9.7 49.4 46 -1.2 29.8 10.05 0.396
19:27 1009 29.8 839 24.78 9.7 49.4 47 -1 30.3 10.03 0.395
19:28 1009 29.8 839 24.78 9.6 49.3 48 -0.9 30.4 9.97 0.393
19:29 1009 29.8 839 24.78 9.5 49.1 48 -0.8 30.6 9.92 0.391
19:30 1009 29.8 839 24.78 9.4 49 47 -1.3 29.7 9.83 0.387
19:31 1009 29.8 839 24.78 9.4 49 48 -1.1 30 9.84 0.387
19:32 1010 29.83 839 24.78 9.4 49 47 -1.3 29.7 9.81 0.386
19:33 1010 29.83 839 24.78 9.4 48.9 48 -1.1 29.9 9.84 0.387
19:34 1010 29.83 839 24.78 9.4 48.9 48 -1.2 29.9 9.77 0.385
19:35 1010 29.83 839 24.78 9.3 48.8 48 -1.2 29.8 9.67 0.381
19:36 1010 29.83 839 24.78 9.2 48.6 47 -1.6 29.1 9.6 0.378
19:37 1010 29.83 839 24.78 9.2 48.6 47 -1.4 29.4 9.58 0.377
19:38 1010 29.83 839 24.78 9.1 48.3 46 -1.9 28.7 9.51 0.374
19:39 1010 29.83 839 24.78 9 48.3 49 -1.2 29.9 9.44 0.372
19:40 1010 29.83 839 24.78 8.9 48.1 49 -1.2 29.9 9.36 0.369
19:41 1010 29.83 839 24.78 8.9 48 50 -1 30.3 9.23 0.363
19:42 1010 29.83 839 24.78 8.6 47.6 51 -1 30.3 9.08 0.357
19:43 1010 29.83 839 24.78 8.4 47.2 51 -1 30.1 8.85 0.348
19:44 1010 29.83 839 24.78 8.3 46.9 52 -1.1 30.1 8.71 0.343
19:45 1010 29.83 839 24.78 8.2 46.7 53 -0.8 30.5 8.59 0.338
19:46 1010 29.83 839 24.78 8 46.4 54 -0.8 30.6 8.42 0.331
19:47 1010 29.83 839 24.78 7.8 46.1 56 -0.5 31.2 8.25 0.325
19:48 1010 29.83 839 24.78 7.7 45.8 56 -0.4 31.2 8.11 0.319
19:49 1010 29.83 839 24.78 7.6 45.7 56 -0.6 31 7.96 0.313
19:50 1010 29.83 839 24.78 7.5 45.5 54 -1.2 29.9 7.91 0.311
19:51 1010 29.83 839 24.78 7.5 45.4 56 -0.8 30.6 7.91 0.311
19:52 1010 29.83 839 24.78 7.4 45.2 56 -0.9 30.5 7.8 0.307
19:53 1010 29.83 839 24.78 7.3 45.1 59 -0.1 31.8 7.73 0.304
19:54 1010 29.83 839 24.78 7.2 44.9 59 -0.4 31.3 7.64 0.301
19:55 1010 29.83 839 24.78 7.1 44.8 59 -0.5 31.2 7.56 0.298
19:56 1010 29.83 839 24.78 7.1 44.8 58 -0.5 31.1 7.48 0.294
19:57 1010 29.83 839 24.78 7.1 44.7 59 -0.5 31.2 7.5 0.295
19:58 1010 29.83 839 24.78 7.1 44.7 58 -0.6 31 7.49 0.295
19:59 1010 29.83 839 24.78 7.1 44.7 60 -0.2 31.6 7.49 0.295
20:00 1010 29.83 839 24.78 7 44.6 61 0 32.1 7.42 0.292
20:01 1010 29.83 839 24.78 6.9 44.4 61 -0.2 31.7 7.3 0.287
20:02 1010 29.83 839 24.78 6.8 44.3 62 -0 32 7.25 0.285
20:03 1010 29.83 839 24.78 6.7 44.1 63 0.2 32.3 7.18 0.283
20:04 1010 29.83 839 24.78 6.7 44 63 0.1 32.2 7.09 0.279
20:05 1010 29.83 839 24.78 6.6 43.9 63 0.1 32.1 7.05 0.278
20:06 1010 29.83 839 24.78 6.6 44 64 0.3 32.6 7.06 0.278
20:07 1010 29.83 839 24.78 6.6 43.8 65 0.5 32.9 7.02 0.276
20:08 1010 29.83 839 24.78 6.5 43.7 65 0.4 32.7 6.953 0.274
20:09 1010 29.83 839 24.78 6.5 43.7 65 0.3 32.6 6.874 0.271
20:10 1010 29.83 839 24.78 6.5 43.6 66 0.5 32.9 6.862 0.27
20:11 1010 29.83 839 24.78 6.4 43.5 66 0.5 33 6.807 0.268
20:12 1010 29.83 840 24.81 6.3 43.3 68 0.7 33.3 6.734 0.265
20:13 1010 29.83 840 24.81 6.2 43.1 68 0.8 33.4 6.592 0.26
20:14 1010 29.83 840 24.81 6.1 43 68 0.6 33.1 6.502 0.256
20:15 1010 29.83 840 24.81 6.1 42.9 68 0.5 32.9 6.486 0.255
20:16 1011 29.85 840 24.81 6 42.9 70 0.9 33.6 6.446 0.254
20:17 1011 29.85 840 24.81 6 42.8 70 0.9 33.6 6.402 0.252
20:18 1011 29.85 840 24.81 5.9 42.7 71 1 33.8 6.347 0.25
20:19 1011 29.85 840 24.81 5.9 42.6 70 0.7 33.3 6.33 0.249
20:20 1011 29.85 840 24.81 5.9 42.6 69 0.8 33.4 6.325 0.249
20:21 1011 29.85 840 24.81 5.9 42.7 71 1 33.8 6.33 0.249
20:22 1011 29.85 840 24.81 5.8 42.5 71 0.9 33.6 6.274 0.247
20:23 1011 29.85 840 24.81 5.8 42.4 70 0.8 33.4 6.234 0.245
20:24 1011 29.85 840 24.81 5.8 42.5 69 0.7 33.2 6.291 0.248
20:25 1011 29.85 840 24.81 5.9 42.5 70 0.8 33.5 6.285 0.247
20:26 1011 29.85 840 24.81 5.9 42.5 69 0.7 33.3 6.253 0.246
20:27 1011 29.85 840 24.81 5.8 42.5 70 0.8 33.4 6.259 0.246
20:28 1011 29.85 840 24.81 5.8 42.5 72 1.1 34 6.236 0.246
20:29 1011 29.85 840 24.81 5.8 42.4 72 1.2 34.1 6.164 0.243
20:30 1011 29.85 840 24.81 5.7 42.3 72 1.1 34 6.113 0.241
20:31 1011 29.85 840 24.81 5.6 42.2 72 1 33.7 6.04 0.238
20:32 1011 29.85 840 24.81 5.7 42.2 73 1.2 34.2 6.069 0.239
20:33 1011 29.85 840 24.81 5.6 42.1 73 1.1 34 6.024 0.237
20:34 1011 29.85 840 24.81 5.6 42 74 1.3 34.3 5.979 0.235
20:35 1011 29.85 840 24.81 5.5 41.8 75 1.3 34.4 5.889 0.232
20:36 1011 29.85 840 24.81 5.4 41.7 76 1.4 34.6 5.844 0.23
20:37 1011 29.85 840 24.81 5.3 41.5 76 1.5 34.6 5.708 0.225
20:38 1011 29.85 840 24.81 5.2 41.3 77 1.4 34.6 5.624 0.221
20:39 1011 29.85 840 24.81 5.1 41.2 77 1.5 34.7 5.579 0.22
20:40 1011 29.85 840 24.81 5.1 41.1 78 1.6 34.9 5.522 0.217
20:41 1011 29.85 840 24.81 5 40.9 79 1.6 34.9 5.46 0.215
20:42 1011 29.85 840 24.81 4.9 40.9 80 1.8 35.2 5.342 0.21
20:43 1011 29.85 840 24.81 4.8 40.7 81 1.8 35.2 5.291 0.208
20:44 1011 29.85 840 24.81 4.7 40.5 81 1.7 35.1 5.184 0.204
20:45 1011 29.85 840 24.81 4.7 40.4 82 1.8 35.3 5.127 0.202
20:46 1011 29.85 841 24.83 4.6 40.3 82 1.8 35.3 5.02 0.198
20:47 1011 29.85 841 24.83 4.6 40.2 83 1.9 35.4 5.014 0.197
20:48 1011 29.85 841 24.83 4.5 40.1 83 1.9 35.5 4.946 0.195
20:49 1011 29.85 841 24.83 4.4 40 84 2 35.5 4.879 0.192
20:50 1012 29.88 841 24.83 4.4 39.8 85 2.1 35.8 4.822 0.19
20:51 1012 29.88 841 24.83 4.3 39.7 86 2.1 35.8 4.743 0.187
20:52 1012 29.88 841 24.83 4.2 39.6 86 2.1 35.9 4.641 0.183
20:53 1012 29.88 841 24.83 4.1 39.4 87 2.1 35.8 4.568 0.18
20:54 1012 29.88 841 24.83 4.1 39.3 87 2.1 35.8 4.511 0.178
20:55 1012 29.88 841 24.83 4 39.3 87 2.1 35.8 4.466 0.176
20:56 1012 29.88 841 24.83 4 39.2 88 2.2 35.9 4.432 0.174
20:57 1012 29.88 841 24.83 3.9 39 89 2.2 36 4.336 0.171
20:58 1012 29.88 841 24.83 3.9 39 89 2.2 35.9 4.28 0.169
20:59 1012 29.88 841 24.83 3.8 38.9 89 2.1 35.8 4.246 0.167
21:00 1012 29.88 841 24.83 3.8 38.9 89 2.2 35.9 4.24 0.167
21:01 1012 29.88 841 24.83 3.8 38.8 89 2.1 35.7 4.172 0.164
21:02 1012 29.88 841 24.83 3.8 38.8 89 2.2 36 4.138 0.163
21:03 1012 29.88 841 24.83 3.7 38.7 89 2.1 35.8 4.15 0.163
21:04 1012 29.88 841 24.83 3.7 38.7 90 2.2 36 4.094 0.161
21:05 1012 29.88 841 24.83 3.7 38.6 90 2.2 36 4.089 0.161
21:06 1012 29.88 841 24.83 3.6 38.5 91 2.2 36 4.016 0.158
21:07 1012 29.88 841 24.83 3.6 38.5 90 2.2 35.9 3.999 0.157
21:08 1012 29.88 841 24.83 3.6 38.4 91 2.2 35.9 3.972 0.156
21:09 1012 29.88 841 24.83 3.6 38.5 90 2.2 35.9 3.949 0.155
21:10 1012 29.88 841 24.83 3.6 38.4 91 2.2 35.9 3.961 0.156
21:11 1012 29.88 841 24.83 3.5 38.4 91 2.2 36 3.927 0.155
21:12 1012 29.88 841 24.83 3.5 38.3 90 2.1 35.8 3.91 0.154
21:13 1012 29.88 841 24.83 3.5 38.3 91 2.1 35.8 3.946 0.155
21:14 1011 29.85 841 24.83 3.5 38.4 91 2.2 36 3.89 0.153
21:15 1011 29.85 841 24.83 3.5 38.3 91 2.1 35.8 3.89 0.153
21:16 1011 29.85 841 24.83 3.5 38.2 91 2.2 35.9 3.875 0.153
21:17 1011 29.85 841 24.83 3.5 38.2 91 2.2 35.9 3.847 0.151
21:18 1011 29.85 841 24.83 3.5 38.3 91 2.2 35.9 3.858 0.152
21:19 1011 29.85 840 24.81 3.5 38.3 91 2.2 35.9 3.848 0.151
21:20 1011 29.85 840 24.81 3.5 38.3 91 2.1 35.8 3.859 0.152
21:21 1011 29.85 840 24.81 3.5 38.4 91 2.2 35.9 3.882 0.153
21:22 1011 29.85 840 24.81 3.5 38.4 90 2.1 35.8 3.9 0.154
21:23 1011 29.85 840 24.81 3.6 38.5 91 2.2 35.9 3.94 0.155
21:24 1011 29.85 840 24.81 3.6 38.5 91 2.2 35.9 3.934 0.155
21:25 1011 29.85 840 24.81 3.6 38.4 90 2.1 35.9 3.895 0.153
21:26 1011 29.85 840 24.81 3.6 38.5 90 2.2 35.9 3.89 0.153
21:27 1011 29.85 840 24.81 3.6 38.5 90 2.1 35.8 3.969 0.156
21:28 1011 29.85 840 24.81 3.7 38.6 90 2.1 35.8 3.981 0.157
21:29 1011 29.85 840 24.81 3.7 38.7 90 2.2 35.9 3.998 0.157
21:30 1011 29.85 840 24.81 3.6 38.5 90 2.2 35.9 3.97 0.156
21:31 1011 29.85 840 24.81 3.6 38.4 90 2.1 35.9 3.902 0.154
21:32 1011 29.85 840 24.81 3.6 38.4 90 2.1 35.9 3.925 0.155
21:33 1011 29.85 840 24.81 3.5 38.4 90 2.1 35.8 3.891 0.153
21:34 1011 29.85 840 24.81 3.5 38.4 91 2.1 35.9 3.869 0.152
21:35 1011 29.85 840 24.81 3.5 38.3 91 2.2 35.9 3.892 0.153
21:36 1011 29.85 840 24.81 3.5 38.2 91 2.2 35.9 3.852 0.152
21:37 1011 29.85 840 24.81 3.4 38.2 91 2.1 35.8 3.841 0.151
21:38 1011 29.85 840 24.81 3.5 38.3 91 2.1 35.8 3.762 0.148
21:39 1011 29.85 840 24.81 3.5 38.2 91 2.1 35.8 3.807 0.15
21:40 1011 29.85 840 24.81 3.5 38.2 91 2.1 35.8 3.864 0.152
21:41 1011 29.85 840 24.81 3.5 38.3 91 2.1 35.8 3.841 0.151
21:42 1011 29.85 840 24.81 3.5 38.4 90 2.1 35.8 3.847 0.151
21:43 1011 29.85 840 24.81 3.6 38.4 90 2.1 35.8 3.859 0.152
21:44 1011 29.85 840 24.81 3.6 38.5 90 2.1 35.7 3.932 0.155
21:45 1011 29.85 840 24.81 3.6 38.5 90 2.1 35.7 3.972 0.156
21:46 1011 29.85 840 24.81 3.6 38.5 89 2.1 35.7 3.983 0.157
21:47 1011 29.85 840 24.81 3.6 38.6 89 2.1 35.7 4 0.157
21:48 1011 29.85 840 24.81 3.7 38.6 89 2 35.7 4.08 0.161
21:49 1011 29.85 840 24.81 3.7 38.6 89 2.1 35.7 4.006 0.158
21:50 1011 29.85 840 24.81 3.7 38.6 89 2 35.6 4.034 0.159
21:51 1011 29.85 840 24.81 3.7 38.7 88 2 35.5 4.012 0.158
21:52 1011 29.85 840 24.81 3.7 38.7 88 1.9 35.4 4.035 0.159
21:53 1011 29.85 840 24.81 3.8 38.8 88 1.9 35.4 4.108 0.162
21:54 1011 29.85 840 24.81 3.8 38.8 88 1.9 35.4 4.142 0.163
21:55 1011 29.85 840 24.81 3.8 38.9 87 1.9 35.4 4.154 0.164
21:56 1011 29.85 840 24.81 3.8 38.9 87 1.8 35.3 4.176 0.164
21:57 1011 29.85 840 24.81 3.8 38.9 86 1.8 35.2 4.176 0.164
21:58 1011 29.85 840 24.81 3.8 38.9 86 1.8 35.2 4.176 0.164
21:59 1011 29.85 840 24.81 3.8 38.8 87 1.8 35.3 4.171 0.164
22:00 1011 29.85 840 24.81 3.8 38.8 87 1.8 35.2 4.127 0.162
22:01 1011 29.85 840 24.81 3.8 38.8 87 1.8 35.3 4.138 0.163
22:02 1011 29.85 840 24.81 3.8 38.8 87 1.7 35.1 4.104 0.162
22:03 1011 29.85 840 24.81 3.8 38.8 87 1.8 35.2 4.156 0.164
22:04 1011 29.85 840 24.81 3.8 38.8 87 1.7 35.1 4.134 0.163
22:05 1011 29.85 840 24.81 3.8 38.8 87 1.7 35.1 4.117 0.162
22:06 1011 29.85 840 24.81 3.8 38.8 87 1.8 35.2 4.084 0.161
22:07 1011 29.85 840 24.81 3.7 38.7 87 1.8 35.2 4.095 0.161
22:08 1011 29.85 840 24.81 3.8 38.8 87 1.7 35.1 4.084 0.161
22:09 1011 29.85 840 24.81 3.8 38.8 86 1.6 35 4.089 0.161
22:10 1011 29.85 840 24.81 3.8 38.8 86 1.6 35 4.123 0.162
22:11 1011 29.85 840 24.81 3.8 38.8 86 1.7 35.1 4.055 0.16
22:12 1011 29.85 840 24.81 3.8 38.8 87 1.8 35.2 4.027 0.159
22:13 1011 29.85 840 24.81 3.7 38.7 87 1.8 35.2 4.044 0.159
22:14 1011 29.85 840 24.81 3.7 38.7 87 1.8 35.2 4.045 0.159
22:15 1011 29.85 840 24.81 3.7 38.7 87 1.8 35.2 4.04 0.159
22:16 1011 29.85 840 24.81 3.7 38.7 87 1.8 35.2 4.062 0.16
22:17 1011 29.85 840 24.81 3.7 38.7 87 1.8 35.2 4.074 0.16
22:18 1011 29.85 840 24.81 3.8 38.8 87 1.9 35.4 4.08 0.161
22:19 1011 29.85 840 24.81 3.7 38.7 88 1.9 35.4 4.131 0.163
22:20 1011 29.85 840 24.81 3.7 38.7 88 1.9 35.4 4.04 0.159
22:21 1011 29.85 840 24.81 3.7 38.7 88 1.9 35.4 4.086 0.161
22:22 1011 29.85 840 24.81 3.7 38.7 88 1.9 35.4 4.058 0.16
22:23 1011 29.85 840 24.81 3.7 38.7 88 1.9 35.5 4.092 0.161
22:24 1011 29.85 840 24.81 3.7 38.6 88 1.9 35.4 4.035 0.159
22:25 1011 29.85 840 24.81 3.7 38.6 88 1.9 35.5 4.058 0.16
22:26 1011 29.85 840 24.81 3.7 38.7 88 1.9 35.5 4.024 0.158
22:27 1011 29.85 840 24.81 3.7 38.7 88 2 35.5 4.064 0.16
22:28 1011 29.85 841 24.83 3.7 38.6 89 2 35.6 3.996 0.157
22:29 1011 29.85 841 24.83 3.6 38.5 89 2 35.7 3.962 0.156
22:30 1011 29.85 841 24.83 3.6 38.6 90 2.1 35.8 4.036 0.159
22:31 1011 29.85 841 24.83 3.6 38.6 89 2 35.5 4.002 0.158
22:32 1011 29.85 841 24.83 3.7 38.7 89 2 35.7 4.043 0.159
22:33 1012 29.88 841 24.83 3.7 38.7 88 2 35.6 4.117 0.162
22:34 1012 29.88 841 24.83 3.8 38.8 89 2.1 35.8 4.156 0.164
22:35 1012 29.88 841 24.83 3.8 38.8 89 2.1 35.8 4.135 0.163
22:36 1012 29.88 841 24.83 3.8 38.8 90 2.2 36 4.124 0.162
22:37 1012 29.88 841 24.83 3.7 38.7 90 2.2 36 4.096 0.161
22:38 1012 29.88 841 24.83 3.6 38.5 90 2.1 35.8 3.925 0.155
22:39 1012 29.88 841 24.83 3.5 38.2 90 2 35.5 3.806 0.15
22:40 1012 29.88 841 24.83 3.3 37.9 90 1.8 35.3 3.648 0.144
22:41 1012 29.88 841 24.83 3.2 37.7 90 1.7 35.1 3.502 0.138
22:42 1012 29.88 841 24.83 3 37.4 90 1.5 34.8 3.355 0.132
22:43 1012 29.88 841 24.83 2.8 37.1 91 1.5 34.7 3.208 0.126
22:44 1012 29.88 841 24.83 2.8 37 91 1.5 34.7 3.157 0.124
22:45 1012 29.88 841 24.83 2.7 36.8 92 1.5 34.6 3.044 0.12
22:46 1012 29.88 841 24.83 2.6 36.7 92 1.4 34.6 2.965 0.117
22:47 1012 29.88 841 24.83 2.5 36.5 93 1.4 34.5 2.874 0.113
22:48 1012 29.88 841 24.83 2.4 36.3 93 1.3 34.4 2.84 0.112
22:49 1012 29.88 841 24.83 2.4 36.2 92 1.2 34.2 2.715 0.107
22:50 1012 29.88 841 24.83 2.3 36.2 93 1.2 34.2 2.722 0.107
22:51 1012 29.88 841 24.83 2.3 36.1 93 1.3 34.3 2.716 0.107
22:52 1012 29.88 841 24.83 2.2 36 93 1.2 34.1 2.665 0.105
22:53 1012 29.88 841 24.83 2.2 36 93 1.2 34.2 2.632 0.104
22:54 1012 29.88 841 24.83 2.2 36 93 1.2 34.2 2.547 0.1
22:55 1012 29.88 841 24.83 2.2 35.9 93 1.1 34 2.524 0.099
22:56 1012 29.88 841 24.83 2.1 35.9 93 1.1 34 2.508 0.099
22:57 1012 29.88 841 24.83 2.2 35.9 93 1.1 34.1 2.491 0.098
22:58 1012 29.88 841 24.83 2.1 35.8 93 1 33.9 2.514 0.099
22:59 1012 29.88 841 24.83 2 35.7 92 0.9 33.6 2.463 0.097
23:00 1012 29.88 841 24.83 2 35.6 93 1 33.8 2.395 0.094
23:01 1012 29.88 841 24.83 1.9 35.5 93 1 33.7 2.401 0.095
23:02 1012 29.88 841 24.83 1.9 35.5 93 0.9 33.6 2.345 0.092
23:03 1012 29.88 841 24.83 1.8 35.3 93 0.8 33.4 2.265 0.089
23:04 1012 29.88 841 24.83 1.8 35.2 93 0.8 33.4 2.231 0.088
23:05 1012 29.88 841 24.83 1.7 35.1 94 0.8 33.4 2.124 0.084
23:06 1012 29.88 841 24.83 1.7 35 93 0.7 33.2 2.084 0.082
23:07 1012 29.88 841 24.83 1.6 34.9 93 0.7 33.2 1.966 0.077
23:08 1012 29.88 841 24.83 1.6 34.8 93 0.6 33 1.881 0.074
23:09 1012 29.88 841 24.83 1.5 34.7 94 0.6 33 1.847 0.073
23:10 1012 29.88 841 24.83 1.4 34.6 93 0.5 32.9 1.779 0.07
23:11 1012 29.88 841 24.83 1.3 34.4 94 0.5 32.8 1.706 0.067
23:12 1012 29.88 841 24.83 1.3 34.4 94 0.5 32.9 1.694 0.067
23:13 1012 29.88 841 24.83 1.3 34.3 94 0.5 32.8 1.694 0.067
23:14 1012 29.88 841 24.83 1.3 34.3 94 0.5 32.8 1.689 0.066
23:15 1012 29.88 841 24.83 1.3 34.3 94 0.5 32.8 1.666 0.066
23:16 1012 29.88 841 24.83 1.2 34.2 95 0.5 32.8 1.644 0.065
23:17 1012 29.88 841 24.83 1.2 34.2 95 0.5 32.9 1.621 0.064
23:18 1012 29.88 841 24.83 1.2 34.2 95 0.5 32.9 1.615 0.064
23:19 1012 29.88 841 24.83 1.2 34.2 95 0.5 32.9 1.615 0.064
23:20 1012 29.88 841 24.83 1.2 34.2 95 0.5 32.9 1.7 0.067
23:21 1012 29.88 842 24.86 1.3 34.3 95 0.5 32.9 1.655 0.065
23:22 1012 29.88 842 24.86 1.3 34.3 95 0.5 33 1.661 0.065
23:23 1012 29.88 842 24.86 1.3 34.3 95 0.6 33 1.655 0.065
23:24 1012 29.88 842 24.86 1.4 34.5 95 0.6 33.1 1.672 0.066
23:25 1012 29.88 842 24.86 1.4 34.5 95 0.7 33.2 1.746 0.069
23:26 1012 29.88 842 24.86 1.4 34.6 95 0.7 33.2 1.797 0.071
23:27 1012 29.88 842 24.86 1.5 34.7 95 0.7 33.3 1.853 0.073
23:28 1013 29.91 842 24.86 1.5 34.8 94 0.7 33.3 1.859 0.073
23:29 1013 29.91 842 24.86 1.6 34.8 95 0.8 33.4 1.938 0.076
23:30 1013 29.91 842 24.86 1.6 34.9 95 0.8 33.5 2.017 0.079
23:31 1013 29.91 842 24.86 1.6 34.9 95 0.8 33.5 1.995 0.079
23:32 1013 29.91 842 24.86 1.6 34.9 95 0.9 33.5 2.012 0.079
23:33 1013 29.91 842 24.86 1.7 35 95 0.9 33.6 2.023 0.08
23:34 1013 29.91 842 24.86 1.7 35 95 1 33.7 2.001 0.079
23:35 1013 29.91 842 24.86 1.6 34.9 95 0.9 33.7 2.029 0.08
23:36 1013 29.91 842 24.86 1.7 35 95 0.9 33.7 2.04 0.08
23:37 1013 29.91 842 24.86 1.7 35 95 0.9 33.7 2.04 0.08
23:38 1013 29.91 842 24.86 1.7 35 95 1 33.8 2.069 0.081
23:39 1013 29.91 842 24.86 1.7 35.1 95 1 33.8 2.069 0.081
23:40 1013 29.91 842 24.86 1.7 35 95 1 33.7 2.102 0.083
23:41 1013 29.91 842 24.86 1.7 35.1 95 1 33.7 2.086 0.082
23:42 1013 29.91 842 24.86 1.7 35.1 95 1 33.8 2.08 0.082
23:43 1013 29.91 842 24.86 1.7 35.1 95 1 33.8 2.097 0.083
23:44 1013 29.91 842 24.86 1.7 35.1 95 1 33.7 2.131 0.084
23:45 1013 29.91 842 24.86 1.8 35.2 95 1 33.8 2.131 0.084
23:46 1013 29.91 842 24.86 1.7 35.1 95 1 33.7 2.142 0.084
23:47 1013 29.91 842 24.86 1.8 35.2 95 1 33.8 2.125 0.084
23:48 1013 29.91 842 24.86 1.8 35.2 95 1 33.9 2.131 0.084
23:49 1013 29.91 842 24.86 1.8 35.2 95 1.1 33.9 2.136 0.084
23:50 1013 29.91 842 24.86 1.8 35.2 95 1 33.9 2.12 0.083
23:51 1013 29.91 842 24.86 1.8 35.2 95 1 33.9 2.125 0.084
23:52 1013 29.91 842 24.86 1.8 35.2 95 1 33.8 2.103 0.083
23:53 1013 29.91 842 24.86 1.8 35.2 95 1 33.8 2.165 0.085
23:54 1013 29.91 842 24.86 1.8 35.2 95 1 33.8 2.12 0.083
23:55 1013 29.91 842 24.86 1.8 35.3 94 1 33.8 2.131 0.084
23:56 1013 29.91 842 24.86 1.8 35.3 94 1 33.8 2.17 0.085
23:57 1013 29.91 842 24.86 1.8 35.3 93 0.9 33.6 2.17 0.085
23:58 1013 29.91 842 24.86 1.9 35.4 93 0.9 33.6 2.216 0.087
23:59 1013 29.91 842 24.86 1.9 35.4 93 0.9 33.7 2.204 0.087
24:00 1013 29.91 842 24.86 1.8 35.3 93 0.9 33.6 2.238 0.088